<?xml version="1.0" encoding="UTF-8" standalone="no" ?>
<gpx xmlns="http://www.topografix.com/GPX/1/1" xmlns:xsi="http://www.w3.org/2001/XMLSchema-instance" xsi:schemaLocation="http://www.topografix.com/GPX/1/1 http://www.topografix.com/GPX/1/1/gpx.xsd" version="1.1" creator="VisuGPX - https://www.visugpx.com">
  <metadata>
    <name>Rando Puy Chopine et Puy des Gouttes</name>
    <desc><![CDATA[Petite promenade familiale   en Auvergne]]></desc>
  </metadata>
  <trk>
    <name><![CDATA[CHOPINE 10-08-15]]></name>
    <trkseg>
      <trkpt lat="45.81459" lon="2.95371">
        <ele>951.84</ele>
        <time>2015-08-10T10:34:39Z</time>
      </trkpt>
      <trkpt lat="45.81459" lon="2.95376">
        <ele>952.32</ele>
        <time>2015-08-10T10:34:58Z</time>
      </trkpt>
      <trkpt lat="45.81456" lon="2.95393">
        <ele>950.88</ele>
        <time>2015-08-10T10:35:10Z</time>
      </trkpt>
      <trkpt lat="45.81454" lon="2.95402">
        <ele>951.36</ele>
        <time>2015-08-10T10:35:17Z</time>
      </trkpt>
      <trkpt lat="45.8145" lon="2.95419">
        <ele>951.36</ele>
        <time>2015-08-10T10:35:32Z</time>
      </trkpt>
      <trkpt lat="45.81443" lon="2.95441">
        <ele>951.36</ele>
        <time>2015-08-10T10:35:49Z</time>
      </trkpt>
      <trkpt lat="45.81433" lon="2.95467">
        <ele>950.4</ele>
        <time>2015-08-10T10:36:07Z</time>
      </trkpt>
      <trkpt lat="45.81423" lon="2.95498">
        <ele>951.84</ele>
        <time>2015-08-10T10:36:26Z</time>
      </trkpt>
      <trkpt lat="45.81418" lon="2.95524">
        <ele>949.92</ele>
        <time>2015-08-10T10:36:41Z</time>
      </trkpt>
      <trkpt lat="45.81415" lon="2.95555">
        <ele>950.88</ele>
        <time>2015-08-10T10:36:56Z</time>
      </trkpt>
      <trkpt lat="45.81415" lon="2.95583">
        <ele>951.84</ele>
        <time>2015-08-10T10:37:11Z</time>
      </trkpt>
      <trkpt lat="45.81415" lon="2.95585">
        <ele>950.88</ele>
        <time>2015-08-10T10:37:12Z</time>
      </trkpt>
      <trkpt lat="45.81418" lon="2.95609">
        <ele>951.36</ele>
        <time>2015-08-10T10:37:26Z</time>
      </trkpt>
      <trkpt lat="45.81421" lon="2.95632">
        <ele>949.92</ele>
        <time>2015-08-10T10:37:39Z</time>
      </trkpt>
      <trkpt lat="45.81422" lon="2.95642">
        <ele>950.88</ele>
        <time>2015-08-10T10:37:51Z</time>
      </trkpt>
      <trkpt lat="45.81422" lon="2.95645">
        <ele>950.88</ele>
        <time>2015-08-10T10:38:09Z</time>
      </trkpt>
      <trkpt lat="45.81422" lon="2.95645">
        <ele>950.4</ele>
        <time>2015-08-10T10:38:11Z</time>
      </trkpt>
      <trkpt lat="45.81425" lon="2.95675">
        <ele>950.88</ele>
        <time>2015-08-10T10:38:26Z</time>
      </trkpt>
      <trkpt lat="45.81423" lon="2.95706">
        <ele>950.88</ele>
        <time>2015-08-10T10:38:42Z</time>
      </trkpt>
      <trkpt lat="45.81422" lon="2.95738">
        <ele>951.36</ele>
        <time>2015-08-10T10:38:59Z</time>
      </trkpt>
      <trkpt lat="45.81413" lon="2.95769">
        <ele>953.28</ele>
        <time>2015-08-10T10:39:16Z</time>
      </trkpt>
      <trkpt lat="45.81405" lon="2.95787">
        <ele>952.8</ele>
        <time>2015-08-10T10:39:28Z</time>
      </trkpt>
      <trkpt lat="45.81408" lon="2.95789">
        <ele>953.28</ele>
        <time>2015-08-10T10:39:42Z</time>
      </trkpt>
      <trkpt lat="45.81409" lon="2.9579">
        <ele>953.28</ele>
        <time>2015-08-10T10:39:53Z</time>
      </trkpt>
      <trkpt lat="45.81409" lon="2.95796">
        <ele>953.28</ele>
        <time>2015-08-10T10:39:57Z</time>
      </trkpt>
      <trkpt lat="45.81412" lon="2.95798">
        <ele>953.28</ele>
        <time>2015-08-10T10:40:01Z</time>
      </trkpt>
      <trkpt lat="45.81424" lon="2.9581">
        <ele>952.8</ele>
        <time>2015-08-10T10:40:15Z</time>
      </trkpt>
      <trkpt lat="45.81439" lon="2.95823">
        <ele>952.8</ele>
        <time>2015-08-10T10:40:27Z</time>
      </trkpt>
      <trkpt lat="45.81452" lon="2.95834">
        <ele>952.32</ele>
        <time>2015-08-10T10:40:39Z</time>
      </trkpt>
      <trkpt lat="45.81464" lon="2.95844">
        <ele>952.32</ele>
        <time>2015-08-10T10:40:50Z</time>
      </trkpt>
      <trkpt lat="45.8148" lon="2.95853">
        <ele>953.28</ele>
        <time>2015-08-10T10:41:03Z</time>
      </trkpt>
      <trkpt lat="45.81503" lon="2.95868">
        <ele>952.8</ele>
        <time>2015-08-10T10:41:21Z</time>
      </trkpt>
      <trkpt lat="45.81523" lon="2.95879">
        <ele>952.32</ele>
        <time>2015-08-10T10:41:36Z</time>
      </trkpt>
      <trkpt lat="45.8154" lon="2.9589">
        <ele>952.8</ele>
        <time>2015-08-10T10:41:49Z</time>
      </trkpt>
      <trkpt lat="45.81556" lon="2.95899">
        <ele>952.8</ele>
        <time>2015-08-10T10:42:03Z</time>
      </trkpt>
      <trkpt lat="45.81575" lon="2.95911">
        <ele>952.8</ele>
        <time>2015-08-10T10:42:18Z</time>
      </trkpt>
      <trkpt lat="45.81591" lon="2.9592">
        <ele>952.8</ele>
        <time>2015-08-10T10:42:29Z</time>
      </trkpt>
      <trkpt lat="45.81612" lon="2.95934">
        <ele>952.32</ele>
        <time>2015-08-10T10:42:46Z</time>
      </trkpt>
      <trkpt lat="45.81633" lon="2.95942">
        <ele>952.32</ele>
        <time>2015-08-10T10:43:02Z</time>
      </trkpt>
      <trkpt lat="45.81651" lon="2.95956">
        <ele>951.84</ele>
        <time>2015-08-10T10:43:17Z</time>
      </trkpt>
      <trkpt lat="45.81663" lon="2.95962">
        <ele>951.84</ele>
        <time>2015-08-10T10:43:26Z</time>
      </trkpt>
      <trkpt lat="45.81667" lon="2.95961">
        <ele>951.84</ele>
        <time>2015-08-10T10:43:29Z</time>
      </trkpt>
      <trkpt lat="45.81684" lon="2.95975">
        <ele>951.36</ele>
        <time>2015-08-10T10:43:43Z</time>
      </trkpt>
      <trkpt lat="45.81702" lon="2.95985">
        <ele>951.36</ele>
        <time>2015-08-10T10:43:58Z</time>
      </trkpt>
      <trkpt lat="45.81709" lon="2.95987">
        <ele>951.84</ele>
        <time>2015-08-10T10:44:04Z</time>
      </trkpt>
      <trkpt lat="45.81723" lon="2.95997">
        <ele>951.84</ele>
        <time>2015-08-10T10:44:15Z</time>
      </trkpt>
      <trkpt lat="45.81732" lon="2.96001">
        <ele>951.84</ele>
        <time>2015-08-10T10:44:22Z</time>
      </trkpt>
      <trkpt lat="45.81743" lon="2.96009">
        <ele>951.84</ele>
        <time>2015-08-10T10:44:32Z</time>
      </trkpt>
      <trkpt lat="45.81749" lon="2.96012">
        <ele>951.84</ele>
        <time>2015-08-10T10:44:37Z</time>
      </trkpt>
      <trkpt lat="45.81754" lon="2.96019">
        <ele>951.84</ele>
        <time>2015-08-10T10:44:43Z</time>
      </trkpt>
      <trkpt lat="45.81756" lon="2.9602">
        <ele>951.84</ele>
        <time>2015-08-10T10:44:45Z</time>
      </trkpt>
      <trkpt lat="45.81765" lon="2.96027">
        <ele>951.84</ele>
        <time>2015-08-10T10:44:53Z</time>
      </trkpt>
      <trkpt lat="45.81783" lon="2.96049">
        <ele>951.84</ele>
        <time>2015-08-10T10:45:10Z</time>
      </trkpt>
      <trkpt lat="45.81784" lon="2.9605">
        <ele>952.32</ele>
        <time>2015-08-10T10:45:11Z</time>
      </trkpt>
      <trkpt lat="45.81793" lon="2.9606">
        <ele>951.84</ele>
        <time>2015-08-10T10:45:19Z</time>
      </trkpt>
      <trkpt lat="45.81805" lon="2.96072">
        <ele>951.84</ele>
        <time>2015-08-10T10:45:31Z</time>
      </trkpt>
      <trkpt lat="45.81819" lon="2.96083">
        <ele>951.84</ele>
        <time>2015-08-10T10:45:42Z</time>
      </trkpt>
      <trkpt lat="45.81836" lon="2.96096">
        <ele>952.32</ele>
        <time>2015-08-10T10:45:56Z</time>
      </trkpt>
      <trkpt lat="45.81846" lon="2.96105">
        <ele>951.84</ele>
        <time>2015-08-10T10:46:05Z</time>
      </trkpt>
      <trkpt lat="45.81859" lon="2.96118">
        <ele>952.8</ele>
        <time>2015-08-10T10:46:19Z</time>
      </trkpt>
      <trkpt lat="45.81877" lon="2.9613">
        <ele>953.28</ele>
        <time>2015-08-10T10:46:34Z</time>
      </trkpt>
      <trkpt lat="45.81896" lon="2.96144">
        <ele>953.28</ele>
        <time>2015-08-10T10:46:49Z</time>
      </trkpt>
      <trkpt lat="45.81915" lon="2.96159">
        <ele>952.8</ele>
        <time>2015-08-10T10:47:04Z</time>
      </trkpt>
      <trkpt lat="45.81926" lon="2.96168">
        <ele>953.28</ele>
        <time>2015-08-10T10:47:13Z</time>
      </trkpt>
      <trkpt lat="45.81943" lon="2.96182">
        <ele>954.25</ele>
        <time>2015-08-10T10:47:29Z</time>
      </trkpt>
      <trkpt lat="45.81946" lon="2.96183">
        <ele>954.25</ele>
        <time>2015-08-10T10:47:31Z</time>
      </trkpt>
      <trkpt lat="45.81965" lon="2.96196">
        <ele>954.73</ele>
        <time>2015-08-10T10:47:48Z</time>
      </trkpt>
      <trkpt lat="45.81982" lon="2.96209">
        <ele>955.21</ele>
        <time>2015-08-10T10:48:03Z</time>
      </trkpt>
      <trkpt lat="45.81999" lon="2.9622">
        <ele>954.73</ele>
        <time>2015-08-10T10:48:17Z</time>
      </trkpt>
      <trkpt lat="45.82" lon="2.96221">
        <ele>955.21</ele>
        <time>2015-08-10T10:48:18Z</time>
      </trkpt>
      <trkpt lat="45.82014" lon="2.9623">
        <ele>955.69</ele>
        <time>2015-08-10T10:48:32Z</time>
      </trkpt>
      <trkpt lat="45.82026" lon="2.96239">
        <ele>955.69</ele>
        <time>2015-08-10T10:48:47Z</time>
      </trkpt>
      <trkpt lat="45.82037" lon="2.96242">
        <ele>955.21</ele>
        <time>2015-08-10T10:48:58Z</time>
      </trkpt>
      <trkpt lat="45.82058" lon="2.96252">
        <ele>956.17</ele>
        <time>2015-08-10T10:49:13Z</time>
      </trkpt>
      <trkpt lat="45.82075" lon="2.96256">
        <ele>957.13</ele>
        <time>2015-08-10T10:49:28Z</time>
      </trkpt>
      <trkpt lat="45.82085" lon="2.96257">
        <ele>956.65</ele>
        <time>2015-08-10T10:49:35Z</time>
      </trkpt>
      <trkpt lat="45.82092" lon="2.9626">
        <ele>956.65</ele>
        <time>2015-08-10T10:49:42Z</time>
      </trkpt>
      <trkpt lat="45.82097" lon="2.96262">
        <ele>957.13</ele>
        <time>2015-08-10T10:49:48Z</time>
      </trkpt>
      <trkpt lat="45.82109" lon="2.96264">
        <ele>957.13</ele>
        <time>2015-08-10T10:49:58Z</time>
      </trkpt>
      <trkpt lat="45.82117" lon="2.96267">
        <ele>957.13</ele>
        <time>2015-08-10T10:50:06Z</time>
      </trkpt>
      <trkpt lat="45.82133" lon="2.96274">
        <ele>957.61</ele>
        <time>2015-08-10T10:50:18Z</time>
      </trkpt>
      <trkpt lat="45.82137" lon="2.96274">
        <ele>957.61</ele>
        <time>2015-08-10T10:50:23Z</time>
      </trkpt>
      <trkpt lat="45.82144" lon="2.96278">
        <ele>958.09</ele>
        <time>2015-08-10T10:50:30Z</time>
      </trkpt>
      <trkpt lat="45.82154" lon="2.9628">
        <ele>958.57</ele>
        <time>2015-08-10T10:50:42Z</time>
      </trkpt>
      <trkpt lat="45.82166" lon="2.96281">
        <ele>959.05</ele>
        <time>2015-08-10T10:50:54Z</time>
      </trkpt>
      <trkpt lat="45.82183" lon="2.96283">
        <ele>959.53</ele>
        <time>2015-08-10T10:51:08Z</time>
      </trkpt>
      <trkpt lat="45.82202" lon="2.96286">
        <ele>960.01</ele>
        <time>2015-08-10T10:51:23Z</time>
      </trkpt>
      <trkpt lat="45.82221" lon="2.96288">
        <ele>960.49</ele>
        <time>2015-08-10T10:51:36Z</time>
      </trkpt>
      <trkpt lat="45.82233" lon="2.96289">
        <ele>960.49</ele>
        <time>2015-08-10T10:51:45Z</time>
      </trkpt>
      <trkpt lat="45.82237" lon="2.96289">
        <ele>960.98</ele>
        <time>2015-08-10T10:51:48Z</time>
      </trkpt>
      <trkpt lat="45.82251" lon="2.96294">
        <ele>960.98</ele>
        <time>2015-08-10T10:52:01Z</time>
      </trkpt>
      <trkpt lat="45.82264" lon="2.96297">
        <ele>961.94</ele>
        <time>2015-08-10T10:52:13Z</time>
      </trkpt>
      <trkpt lat="45.8227" lon="2.963">
        <ele>961.94</ele>
        <time>2015-08-10T10:52:18Z</time>
      </trkpt>
      <trkpt lat="45.82287" lon="2.96313">
        <ele>962.42</ele>
        <time>2015-08-10T10:52:33Z</time>
      </trkpt>
      <trkpt lat="45.82289" lon="2.96316">
        <ele>962.42</ele>
        <time>2015-08-10T10:52:36Z</time>
      </trkpt>
      <trkpt lat="45.82287" lon="2.96324">
        <ele>962.42</ele>
        <time>2015-08-10T10:52:52Z</time>
      </trkpt>
      <trkpt lat="45.82295" lon="2.96325">
        <ele>962.9</ele>
        <time>2015-08-10T10:53:14Z</time>
      </trkpt>
      <trkpt lat="45.82299" lon="2.96324">
        <ele>962.9</ele>
        <time>2015-08-10T10:53:18Z</time>
      </trkpt>
      <trkpt lat="45.82303" lon="2.96324">
        <ele>962.9</ele>
        <time>2015-08-10T10:53:23Z</time>
      </trkpt>
      <trkpt lat="45.82315" lon="2.96324">
        <ele>963.38</ele>
        <time>2015-08-10T10:53:35Z</time>
      </trkpt>
      <trkpt lat="45.82328" lon="2.96324">
        <ele>963.86</ele>
        <time>2015-08-10T10:53:46Z</time>
      </trkpt>
      <trkpt lat="45.82332" lon="2.96324">
        <ele>964.34</ele>
        <time>2015-08-10T10:53:52Z</time>
      </trkpt>
      <trkpt lat="45.82338" lon="2.96323">
        <ele>964.34</ele>
        <time>2015-08-10T10:53:58Z</time>
      </trkpt>
      <trkpt lat="45.82355" lon="2.96321">
        <ele>965.3</ele>
        <time>2015-08-10T10:54:11Z</time>
      </trkpt>
      <trkpt lat="45.82356" lon="2.96321">
        <ele>965.3</ele>
        <time>2015-08-10T10:54:12Z</time>
      </trkpt>
      <trkpt lat="45.8237" lon="2.96317">
        <ele>966.26</ele>
        <time>2015-08-10T10:54:23Z</time>
      </trkpt>
      <trkpt lat="45.82384" lon="2.96321">
        <ele>967.22</ele>
        <time>2015-08-10T10:54:33Z</time>
      </trkpt>
      <trkpt lat="45.82387" lon="2.96322">
        <ele>967.22</ele>
        <time>2015-08-10T10:54:36Z</time>
      </trkpt>
      <trkpt lat="45.82399" lon="2.9632">
        <ele>968.18</ele>
        <time>2015-08-10T10:54:47Z</time>
      </trkpt>
      <trkpt lat="45.82417" lon="2.96323">
        <ele>969.15</ele>
        <time>2015-08-10T10:54:57Z</time>
      </trkpt>
      <trkpt lat="45.82422" lon="2.96322">
        <ele>969.15</ele>
        <time>2015-08-10T10:55:02Z</time>
      </trkpt>
      <trkpt lat="45.8244" lon="2.96319">
        <ele>969.15</ele>
        <time>2015-08-10T10:55:16Z</time>
      </trkpt>
      <trkpt lat="45.82441" lon="2.96319">
        <ele>969.63</ele>
        <time>2015-08-10T10:55:17Z</time>
      </trkpt>
      <trkpt lat="45.82453" lon="2.96326">
        <ele>969.15</ele>
        <time>2015-08-10T10:55:28Z</time>
      </trkpt>
      <trkpt lat="45.82463" lon="2.96331">
        <ele>968.67</ele>
        <time>2015-08-10T10:55:39Z</time>
      </trkpt>
      <trkpt lat="45.82464" lon="2.9633">
        <ele>968.67</ele>
        <time>2015-08-10T10:55:40Z</time>
      </trkpt>
      <trkpt lat="45.82488" lon="2.96335">
        <ele>967.7</ele>
        <time>2015-08-10T10:55:53Z</time>
      </trkpt>
      <trkpt lat="45.825" lon="2.96339">
        <ele>967.22</ele>
        <time>2015-08-10T10:56:05Z</time>
      </trkpt>
      <trkpt lat="45.82504" lon="2.96341">
        <ele>967.22</ele>
        <time>2015-08-10T10:56:08Z</time>
      </trkpt>
      <trkpt lat="45.82512" lon="2.96346">
        <ele>967.7</ele>
        <time>2015-08-10T10:56:13Z</time>
      </trkpt>
      <trkpt lat="45.82518" lon="2.96351">
        <ele>967.22</ele>
        <time>2015-08-10T10:56:22Z</time>
      </trkpt>
      <trkpt lat="45.82536" lon="2.96357">
        <ele>967.22</ele>
        <time>2015-08-10T10:56:36Z</time>
      </trkpt>
      <trkpt lat="45.82554" lon="2.96369">
        <ele>966.74</ele>
        <time>2015-08-10T10:56:51Z</time>
      </trkpt>
      <trkpt lat="45.82566" lon="2.96374">
        <ele>966.26</ele>
        <time>2015-08-10T10:57:04Z</time>
      </trkpt>
      <trkpt lat="45.82583" lon="2.96386">
        <ele>965.3</ele>
        <time>2015-08-10T10:57:19Z</time>
      </trkpt>
      <trkpt lat="45.82584" lon="2.96387">
        <ele>965.3</ele>
        <time>2015-08-10T10:57:20Z</time>
      </trkpt>
      <trkpt lat="45.82586" lon="2.96386">
        <ele>965.3</ele>
        <time>2015-08-10T10:57:40Z</time>
      </trkpt>
      <trkpt lat="45.82583" lon="2.96386">
        <ele>965.78</ele>
        <time>2015-08-10T10:57:57Z</time>
      </trkpt>
      <trkpt lat="45.82576" lon="2.96385">
        <ele>965.78</ele>
        <time>2015-08-10T10:58:06Z</time>
      </trkpt>
      <trkpt lat="45.82564" lon="2.96376">
        <ele>966.26</ele>
        <time>2015-08-10T10:58:18Z</time>
      </trkpt>
      <trkpt lat="45.82549" lon="2.96367">
        <ele>967.22</ele>
        <time>2015-08-10T10:58:31Z</time>
      </trkpt>
      <trkpt lat="45.82531" lon="2.96358">
        <ele>967.7</ele>
        <time>2015-08-10T10:58:46Z</time>
      </trkpt>
      <trkpt lat="45.82511" lon="2.9635">
        <ele>968.18</ele>
        <time>2015-08-10T10:59:00Z</time>
      </trkpt>
      <trkpt lat="45.82502" lon="2.96345">
        <ele>968.67</ele>
        <time>2015-08-10T10:59:12Z</time>
      </trkpt>
      <trkpt lat="45.82497" lon="2.96342">
        <ele>968.67</ele>
        <time>2015-08-10T10:59:18Z</time>
      </trkpt>
      <trkpt lat="45.82474" lon="2.96337">
        <ele>969.63</ele>
        <time>2015-08-10T10:59:36Z</time>
      </trkpt>
      <trkpt lat="45.82457" lon="2.96324">
        <ele>970.11</ele>
        <time>2015-08-10T10:59:51Z</time>
      </trkpt>
      <trkpt lat="45.82456" lon="2.96319">
        <ele>970.11</ele>
        <time>2015-08-10T10:59:53Z</time>
      </trkpt>
      <trkpt lat="45.82457" lon="2.96314">
        <ele>970.59</ele>
        <time>2015-08-10T10:59:57Z</time>
      </trkpt>
      <trkpt lat="45.82477" lon="2.96297">
        <ele>971.55</ele>
        <time>2015-08-10T11:00:15Z</time>
      </trkpt>
      <trkpt lat="45.82479" lon="2.96292">
        <ele>972.03</ele>
        <time>2015-08-10T11:00:26Z</time>
      </trkpt>
      <trkpt lat="45.82479" lon="2.96289">
        <ele>971.07</ele>
        <time>2015-08-10T11:00:37Z</time>
      </trkpt>
      <trkpt lat="45.82479" lon="2.96291">
        <ele>971.55</ele>
        <time>2015-08-10T11:00:50Z</time>
      </trkpt>
      <trkpt lat="45.82481" lon="2.9629">
        <ele>972.03</ele>
        <time>2015-08-10T11:01:03Z</time>
      </trkpt>
      <trkpt lat="45.82484" lon="2.96288">
        <ele>971.55</ele>
        <time>2015-08-10T11:01:08Z</time>
      </trkpt>
      <trkpt lat="45.82487" lon="2.96286">
        <ele>971.55</ele>
        <time>2015-08-10T11:01:19Z</time>
      </trkpt>
      <trkpt lat="45.82497" lon="2.96276">
        <ele>972.03</ele>
        <time>2015-08-10T11:01:34Z</time>
      </trkpt>
      <trkpt lat="45.82506" lon="2.96267">
        <ele>972.51</ele>
        <time>2015-08-10T11:01:48Z</time>
      </trkpt>
      <trkpt lat="45.82523" lon="2.96251">
        <ele>973.47</ele>
        <time>2015-08-10T11:02:04Z</time>
      </trkpt>
      <trkpt lat="45.82541" lon="2.96238">
        <ele>974.43</ele>
        <time>2015-08-10T11:02:22Z</time>
      </trkpt>
      <trkpt lat="45.82553" lon="2.96227">
        <ele>974.43</ele>
        <time>2015-08-10T11:02:37Z</time>
      </trkpt>
      <trkpt lat="45.82571" lon="2.96216">
        <ele>975.39</ele>
        <time>2015-08-10T11:02:54Z</time>
      </trkpt>
      <trkpt lat="45.82584" lon="2.96204">
        <ele>976.84</ele>
        <time>2015-08-10T11:03:11Z</time>
      </trkpt>
      <trkpt lat="45.82599" lon="2.96192">
        <ele>977.32</ele>
        <time>2015-08-10T11:03:26Z</time>
      </trkpt>
      <trkpt lat="45.82615" lon="2.96182">
        <ele>979.24</ele>
        <time>2015-08-10T11:03:42Z</time>
      </trkpt>
      <trkpt lat="45.82634" lon="2.96175">
        <ele>981.16</ele>
        <time>2015-08-10T11:03:59Z</time>
      </trkpt>
      <trkpt lat="45.82637" lon="2.96174">
        <ele>981.16</ele>
        <time>2015-08-10T11:04:02Z</time>
      </trkpt>
      <trkpt lat="45.82655" lon="2.96174">
        <ele>983.09</ele>
        <time>2015-08-10T11:04:18Z</time>
      </trkpt>
      <trkpt lat="45.8267" lon="2.96178">
        <ele>984.53</ele>
        <time>2015-08-10T11:04:31Z</time>
      </trkpt>
      <trkpt lat="45.82687" lon="2.96181">
        <ele>985.97</ele>
        <time>2015-08-10T11:04:45Z</time>
      </trkpt>
      <trkpt lat="45.82706" lon="2.96177">
        <ele>986.45</ele>
        <time>2015-08-10T11:04:59Z</time>
      </trkpt>
      <trkpt lat="45.82726" lon="2.96169">
        <ele>986.93</ele>
        <time>2015-08-10T11:05:15Z</time>
      </trkpt>
      <trkpt lat="45.82741" lon="2.96159">
        <ele>986.93</ele>
        <time>2015-08-10T11:05:28Z</time>
      </trkpt>
      <trkpt lat="45.82757" lon="2.96148">
        <ele>987.41</ele>
        <time>2015-08-10T11:05:43Z</time>
      </trkpt>
      <trkpt lat="45.82772" lon="2.96141">
        <ele>987.41</ele>
        <time>2015-08-10T11:05:57Z</time>
      </trkpt>
      <trkpt lat="45.82794" lon="2.96133">
        <ele>987.41</ele>
        <time>2015-08-10T11:06:11Z</time>
      </trkpt>
      <trkpt lat="45.82806" lon="2.96123">
        <ele>986.45</ele>
        <time>2015-08-10T11:06:23Z</time>
      </trkpt>
      <trkpt lat="45.82822" lon="2.96109">
        <ele>987.41</ele>
        <time>2015-08-10T11:06:37Z</time>
      </trkpt>
      <trkpt lat="45.8284" lon="2.96097">
        <ele>988.37</ele>
        <time>2015-08-10T11:06:50Z</time>
      </trkpt>
      <trkpt lat="45.82843" lon="2.96093">
        <ele>988.37</ele>
        <time>2015-08-10T11:06:52Z</time>
      </trkpt>
      <trkpt lat="45.82863" lon="2.96078">
        <ele>990.3</ele>
        <time>2015-08-10T11:07:09Z</time>
      </trkpt>
      <trkpt lat="45.82874" lon="2.96076">
        <ele>991.74</ele>
        <time>2015-08-10T11:07:21Z</time>
      </trkpt>
      <trkpt lat="45.82891" lon="2.96067">
        <ele>993.18</ele>
        <time>2015-08-10T11:07:36Z</time>
      </trkpt>
      <trkpt lat="45.82893" lon="2.96065">
        <ele>993.66</ele>
        <time>2015-08-10T11:07:38Z</time>
      </trkpt>
      <trkpt lat="45.82904" lon="2.96053">
        <ele>995.1</ele>
        <time>2015-08-10T11:07:47Z</time>
      </trkpt>
      <trkpt lat="45.82913" lon="2.96043">
        <ele>995.58</ele>
        <time>2015-08-10T11:07:57Z</time>
      </trkpt>
      <trkpt lat="45.82922" lon="2.96032">
        <ele>997.02</ele>
        <time>2015-08-10T11:08:08Z</time>
      </trkpt>
      <trkpt lat="45.82923" lon="2.96031">
        <ele>997.02</ele>
        <time>2015-08-10T11:08:09Z</time>
      </trkpt>
      <trkpt lat="45.82925" lon="2.96027">
        <ele>997.99</ele>
        <time>2015-08-10T11:08:11Z</time>
      </trkpt>
      <trkpt lat="45.82928" lon="2.96024">
        <ele>997.99</ele>
        <time>2015-08-10T11:08:14Z</time>
      </trkpt>
      <trkpt lat="45.82936" lon="2.96012">
        <ele>998.95</ele>
        <time>2015-08-10T11:08:24Z</time>
      </trkpt>
      <trkpt lat="45.82945" lon="2.95995">
        <ele>1001.83</ele>
        <time>2015-08-10T11:08:38Z</time>
      </trkpt>
      <trkpt lat="45.8295" lon="2.95989">
        <ele>1002.79</ele>
        <time>2015-08-10T11:08:44Z</time>
      </trkpt>
      <trkpt lat="45.82963" lon="2.95973">
        <ele>1004.23</ele>
        <time>2015-08-10T11:08:58Z</time>
      </trkpt>
      <trkpt lat="45.8297" lon="2.95967">
        <ele>1005.68</ele>
        <time>2015-08-10T11:09:07Z</time>
      </trkpt>
      <trkpt lat="45.82973" lon="2.95963">
        <ele>1006.16</ele>
        <time>2015-08-10T11:09:11Z</time>
      </trkpt>
      <trkpt lat="45.82981" lon="2.95956">
        <ele>1008.08</ele>
        <time>2015-08-10T11:09:24Z</time>
      </trkpt>
      <trkpt lat="45.82994" lon="2.95939">
        <ele>1010</ele>
        <time>2015-08-10T11:09:41Z</time>
      </trkpt>
      <trkpt lat="45.83003" lon="2.95921">
        <ele>1010.96</ele>
        <time>2015-08-10T11:09:52Z</time>
      </trkpt>
      <trkpt lat="45.83007" lon="2.959">
        <ele>1012.89</ele>
        <time>2015-08-10T11:10:05Z</time>
      </trkpt>
      <trkpt lat="45.8301" lon="2.95892">
        <ele>1012.89</ele>
        <time>2015-08-10T11:10:10Z</time>
      </trkpt>
      <trkpt lat="45.83019" lon="2.95869">
        <ele>1013.85</ele>
        <time>2015-08-10T11:10:25Z</time>
      </trkpt>
      <trkpt lat="45.83018" lon="2.95864">
        <ele>1014.33</ele>
        <time>2015-08-10T11:10:40Z</time>
      </trkpt>
      <trkpt lat="45.83021" lon="2.95866">
        <ele>1014.81</ele>
        <time>2015-08-10T11:11:06Z</time>
      </trkpt>
      <trkpt lat="45.83021" lon="2.95865">
        <ele>1014.33</ele>
        <time>2015-08-10T11:11:07Z</time>
      </trkpt>
      <trkpt lat="45.83019" lon="2.95859">
        <ele>1014.33</ele>
        <time>2015-08-10T11:11:10Z</time>
      </trkpt>
      <trkpt lat="45.83015" lon="2.95842">
        <ele>1016.25</ele>
        <time>2015-08-10T11:11:24Z</time>
      </trkpt>
      <trkpt lat="45.83016" lon="2.95841">
        <ele>1015.77</ele>
        <time>2015-08-10T11:11:45Z</time>
      </trkpt>
      <trkpt lat="45.83016" lon="2.95831">
        <ele>1016.25</ele>
        <time>2015-08-10T11:12:00Z</time>
      </trkpt>
      <trkpt lat="45.83014" lon="2.95822">
        <ele>1018.17</ele>
        <time>2015-08-10T11:12:10Z</time>
      </trkpt>
      <trkpt lat="45.8301" lon="2.95806">
        <ele>1021.06</ele>
        <time>2015-08-10T11:12:24Z</time>
      </trkpt>
      <trkpt lat="45.83008" lon="2.95789">
        <ele>1022.02</ele>
        <time>2015-08-10T11:12:37Z</time>
      </trkpt>
      <trkpt lat="45.83004" lon="2.95776">
        <ele>1023.46</ele>
        <time>2015-08-10T11:12:49Z</time>
      </trkpt>
      <trkpt lat="45.83003" lon="2.95764">
        <ele>1025.38</ele>
        <time>2015-08-10T11:13:04Z</time>
      </trkpt>
      <trkpt lat="45.83003" lon="2.95751">
        <ele>1027.31</ele>
        <time>2015-08-10T11:13:19Z</time>
      </trkpt>
      <trkpt lat="45.83005" lon="2.95735">
        <ele>1029.23</ele>
        <time>2015-08-10T11:13:35Z</time>
      </trkpt>
      <trkpt lat="45.8301" lon="2.95718">
        <ele>1033.07</ele>
        <time>2015-08-10T11:13:52Z</time>
      </trkpt>
      <trkpt lat="45.83013" lon="2.9569">
        <ele>1035</ele>
        <time>2015-08-10T11:14:08Z</time>
      </trkpt>
      <trkpt lat="45.83015" lon="2.9568">
        <ele>1036.44</ele>
        <time>2015-08-10T11:14:17Z</time>
      </trkpt>
      <trkpt lat="45.83019" lon="2.95667">
        <ele>1038.84</ele>
        <time>2015-08-10T11:14:32Z</time>
      </trkpt>
      <trkpt lat="45.83017" lon="2.95648">
        <ele>1041.73</ele>
        <time>2015-08-10T11:14:48Z</time>
      </trkpt>
      <trkpt lat="45.83019" lon="2.95629">
        <ele>1044.13</ele>
        <time>2015-08-10T11:15:02Z</time>
      </trkpt>
      <trkpt lat="45.83024" lon="2.95609">
        <ele>1047.01</ele>
        <time>2015-08-10T11:15:22Z</time>
      </trkpt>
      <trkpt lat="45.83025" lon="2.95591">
        <ele>1049.9</ele>
        <time>2015-08-10T11:15:37Z</time>
      </trkpt>
      <trkpt lat="45.83026" lon="2.95574">
        <ele>1051.82</ele>
        <time>2015-08-10T11:15:52Z</time>
      </trkpt>
      <trkpt lat="45.83026" lon="2.95573">
        <ele>1052.3</ele>
        <time>2015-08-10T11:15:53Z</time>
      </trkpt>
      <trkpt lat="45.83023" lon="2.95559">
        <ele>1053.74</ele>
        <time>2015-08-10T11:16:07Z</time>
      </trkpt>
      <trkpt lat="45.83024" lon="2.95547">
        <ele>1055.67</ele>
        <time>2015-08-10T11:16:21Z</time>
      </trkpt>
      <trkpt lat="45.83024" lon="2.95537">
        <ele>1057.11</ele>
        <time>2015-08-10T11:16:33Z</time>
      </trkpt>
      <trkpt lat="45.83019" lon="2.95526">
        <ele>1059.03</ele>
        <time>2015-08-10T11:16:45Z</time>
      </trkpt>
      <trkpt lat="45.83022" lon="2.95514">
        <ele>1059.99</ele>
        <time>2015-08-10T11:16:58Z</time>
      </trkpt>
      <trkpt lat="45.83013" lon="2.95501">
        <ele>1060.95</ele>
        <time>2015-08-10T11:17:13Z</time>
      </trkpt>
      <trkpt lat="45.83005" lon="2.95486">
        <ele>1061.91</ele>
        <time>2015-08-10T11:17:27Z</time>
      </trkpt>
      <trkpt lat="45.82998" lon="2.95473">
        <ele>1063.36</ele>
        <time>2015-08-10T11:17:42Z</time>
      </trkpt>
      <trkpt lat="45.82992" lon="2.95465">
        <ele>1065.76</ele>
        <time>2015-08-10T11:17:54Z</time>
      </trkpt>
      <trkpt lat="45.82987" lon="2.95457">
        <ele>1066.24</ele>
        <time>2015-08-10T11:18:07Z</time>
      </trkpt>
      <trkpt lat="45.82988" lon="2.95446">
        <ele>1067.2</ele>
        <time>2015-08-10T11:18:23Z</time>
      </trkpt>
      <trkpt lat="45.82986" lon="2.95439">
        <ele>1068.16</ele>
        <time>2015-08-10T11:18:31Z</time>
      </trkpt>
      <trkpt lat="45.82982" lon="2.95432">
        <ele>1069.12</ele>
        <time>2015-08-10T11:18:38Z</time>
      </trkpt>
      <trkpt lat="45.8298" lon="2.95427">
        <ele>1070.08</ele>
        <time>2015-08-10T11:18:42Z</time>
      </trkpt>
      <trkpt lat="45.82979" lon="2.9542">
        <ele>1071.05</ele>
        <time>2015-08-10T11:18:47Z</time>
      </trkpt>
      <trkpt lat="45.82975" lon="2.95409">
        <ele>1072.97</ele>
        <time>2015-08-10T11:19:00Z</time>
      </trkpt>
      <trkpt lat="45.82973" lon="2.95405">
        <ele>1073.45</ele>
        <time>2015-08-10T11:19:16Z</time>
      </trkpt>
      <trkpt lat="45.82971" lon="2.95397">
        <ele>1074.41</ele>
        <time>2015-08-10T11:19:34Z</time>
      </trkpt>
      <trkpt lat="45.82967" lon="2.95391">
        <ele>1075.37</ele>
        <time>2015-08-10T11:19:49Z</time>
      </trkpt>
      <trkpt lat="45.82965" lon="2.95389">
        <ele>1075.37</ele>
        <time>2015-08-10T11:19:59Z</time>
      </trkpt>
      <trkpt lat="45.82961" lon="2.9538">
        <ele>1077.29</ele>
        <time>2015-08-10T11:20:13Z</time>
      </trkpt>
      <trkpt lat="45.82952" lon="2.9537">
        <ele>1079.22</ele>
        <time>2015-08-10T11:20:25Z</time>
      </trkpt>
      <trkpt lat="45.82938" lon="2.95358">
        <ele>1080.18</ele>
        <time>2015-08-10T11:20:40Z</time>
      </trkpt>
      <trkpt lat="45.82928" lon="2.95352">
        <ele>1082.58</ele>
        <time>2015-08-10T11:20:55Z</time>
      </trkpt>
      <trkpt lat="45.82919" lon="2.95348">
        <ele>1083.06</ele>
        <time>2015-08-10T11:21:11Z</time>
      </trkpt>
      <trkpt lat="45.82913" lon="2.95345">
        <ele>1084.02</ele>
        <time>2015-08-10T11:21:26Z</time>
      </trkpt>
      <trkpt lat="45.82908" lon="2.95341">
        <ele>1084.5</ele>
        <time>2015-08-10T11:21:44Z</time>
      </trkpt>
      <trkpt lat="45.82903" lon="2.95343">
        <ele>1084.99</ele>
        <time>2015-08-10T11:21:50Z</time>
      </trkpt>
      <trkpt lat="45.82898" lon="2.95344">
        <ele>1084.99</ele>
        <time>2015-08-10T11:21:55Z</time>
      </trkpt>
      <trkpt lat="45.82885" lon="2.95348">
        <ele>1087.39</ele>
        <time>2015-08-10T11:22:07Z</time>
      </trkpt>
      <trkpt lat="45.82881" lon="2.9535">
        <ele>1089.31</ele>
        <time>2015-08-10T11:22:11Z</time>
      </trkpt>
      <trkpt lat="45.82864" lon="2.95349">
        <ele>1092.2</ele>
        <time>2015-08-10T11:22:21Z</time>
      </trkpt>
      <trkpt lat="45.82853" lon="2.95353">
        <ele>1093.16</ele>
        <time>2015-08-10T11:22:34Z</time>
      </trkpt>
      <trkpt lat="45.8284" lon="2.9536">
        <ele>1094.12</ele>
        <time>2015-08-10T11:22:46Z</time>
      </trkpt>
      <trkpt lat="45.82828" lon="2.95365">
        <ele>1095.08</ele>
        <time>2015-08-10T11:23:00Z</time>
      </trkpt>
      <trkpt lat="45.82814" lon="2.9537">
        <ele>1097</ele>
        <time>2015-08-10T11:23:16Z</time>
      </trkpt>
      <trkpt lat="45.82803" lon="2.95372">
        <ele>1098.44</ele>
        <time>2015-08-10T11:23:29Z</time>
      </trkpt>
      <trkpt lat="45.82793" lon="2.95375">
        <ele>1100.37</ele>
        <time>2015-08-10T11:23:43Z</time>
      </trkpt>
      <trkpt lat="45.8278" lon="2.95378">
        <ele>1102.29</ele>
        <time>2015-08-10T11:24:00Z</time>
      </trkpt>
      <trkpt lat="45.82768" lon="2.95382">
        <ele>1103.73</ele>
        <time>2015-08-10T11:24:13Z</time>
      </trkpt>
      <trkpt lat="45.82766" lon="2.95382">
        <ele>1103.73</ele>
        <time>2015-08-10T11:24:16Z</time>
      </trkpt>
      <trkpt lat="45.82758" lon="2.9538">
        <ele>1104.69</ele>
        <time>2015-08-10T11:24:24Z</time>
      </trkpt>
      <trkpt lat="45.82754" lon="2.95382">
        <ele>1105.17</ele>
        <time>2015-08-10T11:24:28Z</time>
      </trkpt>
      <trkpt lat="45.82745" lon="2.95383">
        <ele>1105.65</ele>
        <time>2015-08-10T11:24:36Z</time>
      </trkpt>
      <trkpt lat="45.8274" lon="2.95386">
        <ele>1106.61</ele>
        <time>2015-08-10T11:24:40Z</time>
      </trkpt>
      <trkpt lat="45.82727" lon="2.95391">
        <ele>1107.1</ele>
        <time>2015-08-10T11:24:52Z</time>
      </trkpt>
      <trkpt lat="45.82719" lon="2.95397">
        <ele>1108.06</ele>
        <time>2015-08-10T11:25:00Z</time>
      </trkpt>
      <trkpt lat="45.82706" lon="2.95411">
        <ele>1109.5</ele>
        <time>2015-08-10T11:25:17Z</time>
      </trkpt>
      <trkpt lat="45.82702" lon="2.95414">
        <ele>1109.5</ele>
        <time>2015-08-10T11:25:23Z</time>
      </trkpt>
      <trkpt lat="45.82696" lon="2.95422">
        <ele>1109.98</ele>
        <time>2015-08-10T11:25:31Z</time>
      </trkpt>
      <trkpt lat="45.82689" lon="2.95442">
        <ele>1110.94</ele>
        <time>2015-08-10T11:25:46Z</time>
      </trkpt>
      <trkpt lat="45.82684" lon="2.95458">
        <ele>1112.86</ele>
        <time>2015-08-10T11:25:57Z</time>
      </trkpt>
      <trkpt lat="45.82685" lon="2.95462">
        <ele>1113.34</ele>
        <time>2015-08-10T11:26:00Z</time>
      </trkpt>
      <trkpt lat="45.82685" lon="2.95474">
        <ele>1114.31</ele>
        <time>2015-08-10T11:26:08Z</time>
      </trkpt>
      <trkpt lat="45.82685" lon="2.95479">
        <ele>1114.79</ele>
        <time>2015-08-10T11:26:12Z</time>
      </trkpt>
      <trkpt lat="45.82687" lon="2.95485">
        <ele>1115.75</ele>
        <time>2015-08-10T11:26:19Z</time>
      </trkpt>
      <trkpt lat="45.82688" lon="2.9549">
        <ele>1116.23</ele>
        <time>2015-08-10T11:26:23Z</time>
      </trkpt>
      <trkpt lat="45.82691" lon="2.955">
        <ele>1117.67</ele>
        <time>2015-08-10T11:26:34Z</time>
      </trkpt>
      <trkpt lat="45.82693" lon="2.95501">
        <ele>1117.67</ele>
        <time>2015-08-10T11:26:38Z</time>
      </trkpt>
      <trkpt lat="45.82699" lon="2.95508">
        <ele>1119.59</ele>
        <time>2015-08-10T11:26:48Z</time>
      </trkpt>
      <trkpt lat="45.82707" lon="2.95515">
        <ele>1121.03</ele>
        <time>2015-08-10T11:27:00Z</time>
      </trkpt>
      <trkpt lat="45.82708" lon="2.95515">
        <ele>1120.55</ele>
        <time>2015-08-10T11:27:13Z</time>
      </trkpt>
      <trkpt lat="45.82709" lon="2.95514">
        <ele>1125.36</ele>
        <time>2015-08-10T11:27:16Z</time>
      </trkpt>
      <trkpt lat="45.8271" lon="2.95514">
        <ele>1122</ele>
        <time>2015-08-10T11:27:17Z</time>
      </trkpt>
      <trkpt lat="45.82707" lon="2.95513">
        <ele>1122</ele>
        <time>2015-08-10T11:27:43Z</time>
      </trkpt>
      <trkpt lat="45.82705" lon="2.9551">
        <ele>1122</ele>
        <time>2015-08-10T11:28:13Z</time>
      </trkpt>
      <trkpt lat="45.82703" lon="2.9551">
        <ele>1122</ele>
        <time>2015-08-10T11:28:37Z</time>
      </trkpt>
      <trkpt lat="45.82708" lon="2.95512">
        <ele>1121.52</ele>
        <time>2015-08-10T11:29:02Z</time>
      </trkpt>
      <trkpt lat="45.82712" lon="2.95506">
        <ele>1122.96</ele>
        <time>2015-08-10T11:29:17Z</time>
      </trkpt>
      <trkpt lat="45.82712" lon="2.95508">
        <ele>1122</ele>
        <time>2015-08-10T11:29:19Z</time>
      </trkpt>
      <trkpt lat="45.82704" lon="2.95517">
        <ele>1122</ele>
        <time>2015-08-10T11:29:49Z</time>
      </trkpt>
      <trkpt lat="45.82715" lon="2.95518">
        <ele>1122.48</ele>
        <time>2015-08-10T11:30:04Z</time>
      </trkpt>
      <trkpt lat="45.82727" lon="2.95526">
        <ele>1125.84</ele>
        <time>2015-08-10T11:30:17Z</time>
      </trkpt>
      <trkpt lat="45.82735" lon="2.95532">
        <ele>1123.92</ele>
        <time>2015-08-10T11:30:37Z</time>
      </trkpt>
      <trkpt lat="45.82735" lon="2.95531">
        <ele>1123.92</ele>
        <time>2015-08-10T11:30:38Z</time>
      </trkpt>
      <trkpt lat="45.82735" lon="2.95531">
        <ele>1130.65</ele>
        <time>2015-08-10T11:30:39Z</time>
      </trkpt>
      <trkpt lat="45.82736" lon="2.95532">
        <ele>1124.88</ele>
        <time>2015-08-10T11:30:40Z</time>
      </trkpt>
      <trkpt lat="45.82737" lon="2.95537">
        <ele>1128.73</ele>
        <time>2015-08-10T11:30:47Z</time>
      </trkpt>
      <trkpt lat="45.82739" lon="2.95545">
        <ele>1126.8</ele>
        <time>2015-08-10T11:31:10Z</time>
      </trkpt>
      <trkpt lat="45.8274" lon="2.9555">
        <ele>1130.17</ele>
        <time>2015-08-10T11:31:18Z</time>
      </trkpt>
      <trkpt lat="45.8274" lon="2.95551">
        <ele>1128.24</ele>
        <time>2015-08-10T11:31:20Z</time>
      </trkpt>
      <trkpt lat="45.82754" lon="2.9557">
        <ele>1130.17</ele>
        <time>2015-08-10T11:31:38Z</time>
      </trkpt>
      <trkpt lat="45.82756" lon="2.95574">
        <ele>1130.17</ele>
        <time>2015-08-10T11:31:57Z</time>
      </trkpt>
      <trkpt lat="45.82761" lon="2.95585">
        <ele>1134.49</ele>
        <time>2015-08-10T11:32:08Z</time>
      </trkpt>
      <trkpt lat="45.82762" lon="2.95585">
        <ele>1129.69</ele>
        <time>2015-08-10T11:32:10Z</time>
      </trkpt>
      <trkpt lat="45.82763" lon="2.95586">
        <ele>1128.73</ele>
        <time>2015-08-10T11:32:13Z</time>
      </trkpt>
      <trkpt lat="45.82763" lon="2.95586">
        <ele>1132.09</ele>
        <time>2015-08-10T11:32:14Z</time>
      </trkpt>
      <trkpt lat="45.82773" lon="2.95603">
        <ele>1133.05</ele>
        <time>2015-08-10T11:32:32Z</time>
      </trkpt>
      <trkpt lat="45.82775" lon="2.95605">
        <ele>1133.53</ele>
        <time>2015-08-10T11:32:34Z</time>
      </trkpt>
      <trkpt lat="45.82781" lon="2.95608">
        <ele>1136.42</ele>
        <time>2015-08-10T11:32:40Z</time>
      </trkpt>
      <trkpt lat="45.82782" lon="2.95608">
        <ele>1135.45</ele>
        <time>2015-08-10T11:32:41Z</time>
      </trkpt>
      <trkpt lat="45.8279" lon="2.95614">
        <ele>1140.74</ele>
        <time>2015-08-10T11:32:53Z</time>
      </trkpt>
      <trkpt lat="45.82791" lon="2.95615">
        <ele>1135.94</ele>
        <time>2015-08-10T11:32:54Z</time>
      </trkpt>
      <trkpt lat="45.82799" lon="2.9562">
        <ele>1132.09</ele>
        <time>2015-08-10T11:33:07Z</time>
      </trkpt>
      <trkpt lat="45.828" lon="2.9562">
        <ele>1138.34</ele>
        <time>2015-08-10T11:33:08Z</time>
      </trkpt>
      <trkpt lat="45.82803" lon="2.95618">
        <ele>1137.86</ele>
        <time>2015-08-10T11:33:12Z</time>
      </trkpt>
      <trkpt lat="45.82813" lon="2.95603">
        <ele>1134.49</ele>
        <time>2015-08-10T11:33:27Z</time>
      </trkpt>
      <trkpt lat="45.82813" lon="2.95602">
        <ele>1139.3</ele>
        <time>2015-08-10T11:33:28Z</time>
      </trkpt>
      <trkpt lat="45.82813" lon="2.956">
        <ele>1135.94</ele>
        <time>2015-08-10T11:33:30Z</time>
      </trkpt>
      <trkpt lat="45.82813" lon="2.956">
        <ele>1141.7</ele>
        <time>2015-08-10T11:33:31Z</time>
      </trkpt>
      <trkpt lat="45.82813" lon="2.95599">
        <ele>1133.53</ele>
        <time>2015-08-10T11:33:32Z</time>
      </trkpt>
      <trkpt lat="45.82813" lon="2.95598">
        <ele>1140.74</ele>
        <time>2015-08-10T11:33:33Z</time>
      </trkpt>
      <trkpt lat="45.82815" lon="2.95595">
        <ele>1137.86</ele>
        <time>2015-08-10T11:33:39Z</time>
      </trkpt>
      <trkpt lat="45.8282" lon="2.95591">
        <ele>1139.3</ele>
        <time>2015-08-10T11:33:58Z</time>
      </trkpt>
      <trkpt lat="45.82817" lon="2.95589">
        <ele>1140.26</ele>
        <time>2015-08-10T11:34:22Z</time>
      </trkpt>
      <trkpt lat="45.82814" lon="2.95584">
        <ele>1143.14</ele>
        <time>2015-08-10T11:34:35Z</time>
      </trkpt>
      <trkpt lat="45.82813" lon="2.95577">
        <ele>1146.03</ele>
        <time>2015-08-10T11:34:47Z</time>
      </trkpt>
      <trkpt lat="45.82812" lon="2.9557">
        <ele>1149.39</ele>
        <time>2015-08-10T11:35:01Z</time>
      </trkpt>
      <trkpt lat="45.82811" lon="2.95563">
        <ele>1152.28</ele>
        <time>2015-08-10T11:35:19Z</time>
      </trkpt>
      <trkpt lat="45.82809" lon="2.95557">
        <ele>1155.16</ele>
        <time>2015-08-10T11:35:33Z</time>
      </trkpt>
      <trkpt lat="45.82811" lon="2.95554">
        <ele>1156.12</ele>
        <time>2015-08-10T11:35:59Z</time>
      </trkpt>
      <trkpt lat="45.82812" lon="2.95549">
        <ele>1159.01</ele>
        <time>2015-08-10T11:36:11Z</time>
      </trkpt>
      <trkpt lat="45.82812" lon="2.95544">
        <ele>1159.49</ele>
        <time>2015-08-10T11:36:25Z</time>
      </trkpt>
      <trkpt lat="45.82812" lon="2.95539">
        <ele>1161.89</ele>
        <time>2015-08-10T11:36:36Z</time>
      </trkpt>
      <trkpt lat="45.82811" lon="2.95538">
        <ele>1162.85</ele>
        <time>2015-08-10T11:36:41Z</time>
      </trkpt>
      <trkpt lat="45.8281" lon="2.95537">
        <ele>1163.81</ele>
        <time>2015-08-10T11:36:45Z</time>
      </trkpt>
      <trkpt lat="45.82815" lon="2.95537">
        <ele>1163.33</ele>
        <time>2015-08-10T11:37:00Z</time>
      </trkpt>
      <trkpt lat="45.82815" lon="2.95536">
        <ele>1166.7</ele>
        <time>2015-08-10T11:37:04Z</time>
      </trkpt>
      <trkpt lat="45.82815" lon="2.95535">
        <ele>1165.74</ele>
        <time>2015-08-10T11:37:05Z</time>
      </trkpt>
      <trkpt lat="45.82811" lon="2.95534">
        <ele>1167.18</ele>
        <time>2015-08-10T11:37:22Z</time>
      </trkpt>
      <trkpt lat="45.8281" lon="2.95531">
        <ele>1168.14</ele>
        <time>2015-08-10T11:37:26Z</time>
      </trkpt>
      <trkpt lat="45.82805" lon="2.9552">
        <ele>1170.06</ele>
        <time>2015-08-10T11:37:41Z</time>
      </trkpt>
      <trkpt lat="45.82801" lon="2.95512">
        <ele>1171.5</ele>
        <time>2015-08-10T11:37:54Z</time>
      </trkpt>
      <trkpt lat="45.82803" lon="2.95512">
        <ele>1171.5</ele>
        <time>2015-08-10T11:38:11Z</time>
      </trkpt>
      <trkpt lat="45.82804" lon="2.95511">
        <ele>1170.54</ele>
        <time>2015-08-10T11:38:30Z</time>
      </trkpt>
      <trkpt lat="45.82803" lon="2.95511">
        <ele>1170.54</ele>
        <time>2015-08-10T11:38:56Z</time>
      </trkpt>
      <trkpt lat="45.82806" lon="2.95514">
        <ele>1169.1</ele>
        <time>2015-08-10T11:39:21Z</time>
      </trkpt>
      <trkpt lat="45.82808" lon="2.95514">
        <ele>1168.62</ele>
        <time>2015-08-10T11:39:23Z</time>
      </trkpt>
      <trkpt lat="45.82812" lon="2.95522">
        <ele>1168.14</ele>
        <time>2015-08-10T11:39:35Z</time>
      </trkpt>
      <trkpt lat="45.82814" lon="2.95529">
        <ele>1167.18</ele>
        <time>2015-08-10T11:39:50Z</time>
      </trkpt>
      <trkpt lat="45.8282" lon="2.95534">
        <ele>1166.22</ele>
        <time>2015-08-10T11:40:11Z</time>
      </trkpt>
      <trkpt lat="45.82817" lon="2.95537">
        <ele>1165.26</ele>
        <time>2015-08-10T11:40:29Z</time>
      </trkpt>
      <trkpt lat="45.82815" lon="2.9554">
        <ele>1164.29</ele>
        <time>2015-08-10T11:40:47Z</time>
      </trkpt>
      <trkpt lat="45.82817" lon="2.95544">
        <ele>1163.33</ele>
        <time>2015-08-10T11:41:07Z</time>
      </trkpt>
      <trkpt lat="45.82814" lon="2.95545">
        <ele>1162.85</ele>
        <time>2015-08-10T11:41:23Z</time>
      </trkpt>
      <trkpt lat="45.82812" lon="2.95546">
        <ele>1161.89</ele>
        <time>2015-08-10T11:41:42Z</time>
      </trkpt>
      <trkpt lat="45.82813" lon="2.95548">
        <ele>1160.93</ele>
        <time>2015-08-10T11:42:00Z</time>
      </trkpt>
      <trkpt lat="45.82813" lon="2.9555">
        <ele>1159.97</ele>
        <time>2015-08-10T11:42:12Z</time>
      </trkpt>
      <trkpt lat="45.82812" lon="2.95554">
        <ele>1158.05</ele>
        <time>2015-08-10T11:42:26Z</time>
      </trkpt>
      <trkpt lat="45.82813" lon="2.95553">
        <ele>1157.08</ele>
        <time>2015-08-10T11:42:40Z</time>
      </trkpt>
      <trkpt lat="45.82811" lon="2.95558">
        <ele>1154.2</ele>
        <time>2015-08-10T11:42:57Z</time>
      </trkpt>
      <trkpt lat="45.82811" lon="2.9556">
        <ele>1151.32</ele>
        <time>2015-08-10T11:43:07Z</time>
      </trkpt>
      <trkpt lat="45.8281" lon="2.95568">
        <ele>1147.95</ele>
        <time>2015-08-10T11:43:19Z</time>
      </trkpt>
      <trkpt lat="45.8281" lon="2.95569">
        <ele>1147.95</ele>
        <time>2015-08-10T11:43:20Z</time>
      </trkpt>
      <trkpt lat="45.82813" lon="2.95577">
        <ele>1144.59</ele>
        <time>2015-08-10T11:43:32Z</time>
      </trkpt>
      <trkpt lat="45.82815" lon="2.95579">
        <ele>1144.59</ele>
        <time>2015-08-10T11:43:52Z</time>
      </trkpt>
      <trkpt lat="45.82819" lon="2.95582">
        <ele>1142.66</ele>
        <time>2015-08-10T11:44:06Z</time>
      </trkpt>
      <trkpt lat="45.82822" lon="2.95588">
        <ele>1141.22</ele>
        <time>2015-08-10T11:44:20Z</time>
      </trkpt>
      <trkpt lat="45.82817" lon="2.95597">
        <ele>1140.74</ele>
        <time>2015-08-10T11:44:35Z</time>
      </trkpt>
      <trkpt lat="45.82817" lon="2.95598">
        <ele>1141.22</ele>
        <time>2015-08-10T11:44:36Z</time>
      </trkpt>
      <trkpt lat="45.82817" lon="2.95598">
        <ele>1137.38</ele>
        <time>2015-08-10T11:44:37Z</time>
      </trkpt>
      <trkpt lat="45.82816" lon="2.95599">
        <ele>1142.66</ele>
        <time>2015-08-10T11:44:38Z</time>
      </trkpt>
      <trkpt lat="45.82816" lon="2.95599">
        <ele>1138.34</ele>
        <time>2015-08-10T11:44:39Z</time>
      </trkpt>
      <trkpt lat="45.82813" lon="2.95613">
        <ele>1140.74</ele>
        <time>2015-08-10T11:44:55Z</time>
      </trkpt>
      <trkpt lat="45.828" lon="2.95626">
        <ele>1140.26</ele>
        <time>2015-08-10T11:45:17Z</time>
      </trkpt>
      <trkpt lat="45.828" lon="2.95627">
        <ele>1140.26</ele>
        <time>2015-08-10T11:45:18Z</time>
      </trkpt>
      <trkpt lat="45.82793" lon="2.95625">
        <ele>1138.82</ele>
        <time>2015-08-10T11:45:41Z</time>
      </trkpt>
      <trkpt lat="45.82793" lon="2.95625">
        <ele>1142.66</ele>
        <time>2015-08-10T11:45:42Z</time>
      </trkpt>
      <trkpt lat="45.82796" lon="2.95624">
        <ele>1141.22</ele>
        <time>2015-08-10T11:46:06Z</time>
      </trkpt>
      <trkpt lat="45.82792" lon="2.95613">
        <ele>1137.86</ele>
        <time>2015-08-10T11:46:24Z</time>
      </trkpt>
      <trkpt lat="45.82779" lon="2.95599">
        <ele>1136.9</ele>
        <time>2015-08-10T11:46:47Z</time>
      </trkpt>
      <trkpt lat="45.82766" lon="2.95594">
        <ele>1133.53</ele>
        <time>2015-08-10T11:47:01Z</time>
      </trkpt>
      <trkpt lat="45.82765" lon="2.95594">
        <ele>1137.86</ele>
        <time>2015-08-10T11:47:02Z</time>
      </trkpt>
      <trkpt lat="45.82764" lon="2.95587">
        <ele>1134.49</ele>
        <time>2015-08-10T11:47:16Z</time>
      </trkpt>
      <trkpt lat="45.82764" lon="2.95587">
        <ele>1134.49</ele>
        <time>2015-08-10T11:47:17Z</time>
      </trkpt>
      <trkpt lat="45.82757" lon="2.95574">
        <ele>1133.53</ele>
        <time>2015-08-10T11:47:35Z</time>
      </trkpt>
      <trkpt lat="45.82745" lon="2.95554">
        <ele>1132.09</ele>
        <time>2015-08-10T11:47:52Z</time>
      </trkpt>
      <trkpt lat="45.82743" lon="2.95542">
        <ele>1129.21</ele>
        <time>2015-08-10T11:48:09Z</time>
      </trkpt>
      <trkpt lat="45.82743" lon="2.95542">
        <ele>1133.05</ele>
        <time>2015-08-10T11:48:10Z</time>
      </trkpt>
      <trkpt lat="45.82743" lon="2.95542">
        <ele>1131.13</ele>
        <time>2015-08-10T11:48:11Z</time>
      </trkpt>
      <trkpt lat="45.82741" lon="2.95538">
        <ele>1125.84</ele>
        <time>2015-08-10T11:48:32Z</time>
      </trkpt>
      <trkpt lat="45.82742" lon="2.95538">
        <ele>1132.57</ele>
        <time>2015-08-10T11:48:33Z</time>
      </trkpt>
      <trkpt lat="45.82741" lon="2.95537">
        <ele>1129.21</ele>
        <time>2015-08-10T11:48:35Z</time>
      </trkpt>
      <trkpt lat="45.82741" lon="2.95536">
        <ele>1129.21</ele>
        <time>2015-08-10T11:48:36Z</time>
      </trkpt>
      <trkpt lat="45.82733" lon="2.95529">
        <ele>1126.32</ele>
        <time>2015-08-10T11:48:52Z</time>
      </trkpt>
      <trkpt lat="45.8272" lon="2.95512">
        <ele>1125.36</ele>
        <time>2015-08-10T11:49:11Z</time>
      </trkpt>
      <trkpt lat="45.82714" lon="2.95511">
        <ele>1123.44</ele>
        <time>2015-08-10T11:49:33Z</time>
      </trkpt>
      <trkpt lat="45.82709" lon="2.95512">
        <ele>1122.96</ele>
        <time>2015-08-10T11:49:52Z</time>
      </trkpt>
      <trkpt lat="45.82709" lon="2.95512">
        <ele>1122.48</ele>
        <time>2015-08-10T11:50:15Z</time>
      </trkpt>
      <trkpt lat="45.82709" lon="2.95512">
        <ele>1122</ele>
        <time>2015-08-10T11:50:16Z</time>
      </trkpt>
      <trkpt lat="45.8271" lon="2.95513">
        <ele>1123.44</ele>
        <time>2015-08-10T11:50:19Z</time>
      </trkpt>
      <trkpt lat="45.82707" lon="2.95513">
        <ele>1123.44</ele>
        <time>2015-08-10T11:50:44Z</time>
      </trkpt>
      <trkpt lat="45.82704" lon="2.95517">
        <ele>1122</ele>
        <time>2015-08-10T11:51:21Z</time>
      </trkpt>
      <trkpt lat="45.82707" lon="2.95514">
        <ele>1122</ele>
        <time>2015-08-10T11:51:43Z</time>
      </trkpt>
      <trkpt lat="45.8271" lon="2.95516">
        <ele>1122</ele>
        <time>2015-08-10T11:52:19Z</time>
      </trkpt>
      <trkpt lat="45.82708" lon="2.95517">
        <ele>1121.52</ele>
        <time>2015-08-10T11:52:54Z</time>
      </trkpt>
      <trkpt lat="45.82707" lon="2.95514">
        <ele>1120.55</ele>
        <time>2015-08-10T11:53:15Z</time>
      </trkpt>
      <trkpt lat="45.82701" lon="2.95512">
        <ele>1119.59</ele>
        <time>2015-08-10T11:53:32Z</time>
      </trkpt>
      <trkpt lat="45.82694" lon="2.95506">
        <ele>1118.63</ele>
        <time>2015-08-10T11:53:50Z</time>
      </trkpt>
      <trkpt lat="45.82688" lon="2.95502">
        <ele>1117.19</ele>
        <time>2015-08-10T11:54:06Z</time>
      </trkpt>
      <trkpt lat="45.82685" lon="2.9549">
        <ele>1116.71</ele>
        <time>2015-08-10T11:54:23Z</time>
      </trkpt>
      <trkpt lat="45.82682" lon="2.9548">
        <ele>1113.34</ele>
        <time>2015-08-10T11:54:31Z</time>
      </trkpt>
      <trkpt lat="45.82683" lon="2.95461">
        <ele>1111.9</ele>
        <time>2015-08-10T11:54:46Z</time>
      </trkpt>
      <trkpt lat="45.82685" lon="2.95457">
        <ele>1111.42</ele>
        <time>2015-08-10T11:54:51Z</time>
      </trkpt>
      <trkpt lat="45.82695" lon="2.95435">
        <ele>1110.46</ele>
        <time>2015-08-10T11:55:06Z</time>
      </trkpt>
      <trkpt lat="45.82695" lon="2.95435">
        <ele>1109.98</ele>
        <time>2015-08-10T11:55:07Z</time>
      </trkpt>
      <trkpt lat="45.82703" lon="2.95418">
        <ele>1109.5</ele>
        <time>2015-08-10T11:55:22Z</time>
      </trkpt>
      <trkpt lat="45.82713" lon="2.95409">
        <ele>1107.1</ele>
        <time>2015-08-10T11:55:34Z</time>
      </trkpt>
      <trkpt lat="45.82729" lon="2.95396">
        <ele>1107.1</ele>
        <time>2015-08-10T11:55:49Z</time>
      </trkpt>
      <trkpt lat="45.82743" lon="2.95387">
        <ele>1105.17</ele>
        <time>2015-08-10T11:56:07Z</time>
      </trkpt>
      <trkpt lat="45.82759" lon="2.95388">
        <ele>1101.81</ele>
        <time>2015-08-10T11:56:23Z</time>
      </trkpt>
      <trkpt lat="45.82768" lon="2.95395">
        <ele>1100.37</ele>
        <time>2015-08-10T11:56:34Z</time>
      </trkpt>
      <trkpt lat="45.82789" lon="2.95382">
        <ele>1097.48</ele>
        <time>2015-08-10T11:56:50Z</time>
      </trkpt>
      <trkpt lat="45.82794" lon="2.95381">
        <ele>1094.12</ele>
        <time>2015-08-10T11:56:56Z</time>
      </trkpt>
      <trkpt lat="45.82794" lon="2.95381">
        <ele>1098.44</ele>
        <time>2015-08-10T11:56:57Z</time>
      </trkpt>
      <trkpt lat="45.82797" lon="2.95382">
        <ele>1096.52</ele>
        <time>2015-08-10T11:57:00Z</time>
      </trkpt>
      <trkpt lat="45.82813" lon="2.95376">
        <ele>1094.12</ele>
        <time>2015-08-10T11:57:20Z</time>
      </trkpt>
      <trkpt lat="45.82827" lon="2.95369">
        <ele>1092.68</ele>
        <time>2015-08-10T11:57:37Z</time>
      </trkpt>
      <trkpt lat="45.82837" lon="2.95364">
        <ele>1091.23</ele>
        <time>2015-08-10T11:57:45Z</time>
      </trkpt>
      <trkpt lat="45.82852" lon="2.9535">
        <ele>1088.35</ele>
        <time>2015-08-10T11:58:02Z</time>
      </trkpt>
      <trkpt lat="45.82869" lon="2.95351">
        <ele>1086.91</ele>
        <time>2015-08-10T11:58:22Z</time>
      </trkpt>
      <trkpt lat="45.82892" lon="2.9535">
        <ele>1083.54</ele>
        <time>2015-08-10T11:58:45Z</time>
      </trkpt>
      <trkpt lat="45.82906" lon="2.95348">
        <ele>1082.58</ele>
        <time>2015-08-10T11:59:04Z</time>
      </trkpt>
      <trkpt lat="45.82912" lon="2.9535">
        <ele>1081.14</ele>
        <time>2015-08-10T11:59:13Z</time>
      </trkpt>
      <trkpt lat="45.82927" lon="2.95357">
        <ele>1079.7</ele>
        <time>2015-08-10T11:59:28Z</time>
      </trkpt>
      <trkpt lat="45.82947" lon="2.95375">
        <ele>1077.78</ele>
        <time>2015-08-10T11:59:46Z</time>
      </trkpt>
      <trkpt lat="45.82953" lon="2.95384">
        <ele>1076.81</ele>
        <time>2015-08-10T11:59:59Z</time>
      </trkpt>
      <trkpt lat="45.82961" lon="2.95395">
        <ele>1072.97</ele>
        <time>2015-08-10T12:00:18Z</time>
      </trkpt>
      <trkpt lat="45.82966" lon="2.95405">
        <ele>1072.01</ele>
        <time>2015-08-10T12:00:33Z</time>
      </trkpt>
      <trkpt lat="45.82969" lon="2.95412">
        <ele>1070.57</ele>
        <time>2015-08-10T12:00:42Z</time>
      </trkpt>
      <trkpt lat="45.82984" lon="2.95438">
        <ele>1066.24</ele>
        <time>2015-08-10T12:01:06Z</time>
      </trkpt>
      <trkpt lat="45.82984" lon="2.95439">
        <ele>1066.24</ele>
        <time>2015-08-10T12:01:07Z</time>
      </trkpt>
      <trkpt lat="45.82987" lon="2.9546">
        <ele>1063.84</ele>
        <time>2015-08-10T12:01:29Z</time>
      </trkpt>
      <trkpt lat="45.82999" lon="2.95484">
        <ele>1062.39</ele>
        <time>2015-08-10T12:01:47Z</time>
      </trkpt>
      <trkpt lat="45.83011" lon="2.95498">
        <ele>1060.47</ele>
        <time>2015-08-10T12:02:05Z</time>
      </trkpt>
      <trkpt lat="45.83011" lon="2.95499">
        <ele>1059.99</ele>
        <time>2015-08-10T12:02:06Z</time>
      </trkpt>
      <trkpt lat="45.83021" lon="2.9551">
        <ele>1058.55</ele>
        <time>2015-08-10T12:02:24Z</time>
      </trkpt>
      <trkpt lat="45.83023" lon="2.95527">
        <ele>1058.07</ele>
        <time>2015-08-10T12:02:44Z</time>
      </trkpt>
      <trkpt lat="45.83023" lon="2.95533">
        <ele>1057.11</ele>
        <time>2015-08-10T12:03:10Z</time>
      </trkpt>
      <trkpt lat="45.83025" lon="2.95551">
        <ele>1054.22</ele>
        <time>2015-08-10T12:03:28Z</time>
      </trkpt>
      <trkpt lat="45.83029" lon="2.95571">
        <ele>1052.3</ele>
        <time>2015-08-10T12:03:47Z</time>
      </trkpt>
      <trkpt lat="45.83028" lon="2.95584">
        <ele>1048.94</ele>
        <time>2015-08-10T12:04:00Z</time>
      </trkpt>
      <trkpt lat="45.8303" lon="2.95609">
        <ele>1046.05</ele>
        <time>2015-08-10T12:04:23Z</time>
      </trkpt>
      <trkpt lat="45.83028" lon="2.95632">
        <ele>1044.13</ele>
        <time>2015-08-10T12:04:44Z</time>
      </trkpt>
      <trkpt lat="45.83026" lon="2.95652">
        <ele>1040.76</ele>
        <time>2015-08-10T12:05:02Z</time>
      </trkpt>
      <trkpt lat="45.83024" lon="2.9567">
        <ele>1039.32</ele>
        <time>2015-08-10T12:05:20Z</time>
      </trkpt>
      <trkpt lat="45.83023" lon="2.95676">
        <ele>1036.44</ele>
        <time>2015-08-10T12:05:31Z</time>
      </trkpt>
      <trkpt lat="45.83019" lon="2.95697">
        <ele>1035</ele>
        <time>2015-08-10T12:05:50Z</time>
      </trkpt>
      <trkpt lat="45.83019" lon="2.95706">
        <ele>1032.11</ele>
        <time>2015-08-10T12:05:59Z</time>
      </trkpt>
      <trkpt lat="45.83012" lon="2.9574">
        <ele>1029.23</ele>
        <time>2015-08-10T12:06:22Z</time>
      </trkpt>
      <trkpt lat="45.83008" lon="2.9576">
        <ele>1025.86</ele>
        <time>2015-08-10T12:06:39Z</time>
      </trkpt>
      <trkpt lat="45.83008" lon="2.9576">
        <ele>1025.86</ele>
        <time>2015-08-10T12:06:40Z</time>
      </trkpt>
      <trkpt lat="45.83008" lon="2.95767">
        <ele>1018.17</ele>
        <time>2015-08-10T12:06:53Z</time>
      </trkpt>
      <trkpt lat="45.83008" lon="2.95767">
        <ele>1034.04</ele>
        <time>2015-08-10T12:06:54Z</time>
      </trkpt>
      <trkpt lat="45.83008" lon="2.95768">
        <ele>1025.86</ele>
        <time>2015-08-10T12:06:55Z</time>
      </trkpt>
      <trkpt lat="45.83011" lon="2.9579">
        <ele>1023.46</ele>
        <time>2015-08-10T12:07:12Z</time>
      </trkpt>
      <trkpt lat="45.8301" lon="2.95806">
        <ele>1021.54</ele>
        <time>2015-08-10T12:07:31Z</time>
      </trkpt>
      <trkpt lat="45.83013" lon="2.9582">
        <ele>1019.13</ele>
        <time>2015-08-10T12:07:42Z</time>
      </trkpt>
      <trkpt lat="45.83018" lon="2.95833">
        <ele>1018.17</ele>
        <time>2015-08-10T12:07:51Z</time>
      </trkpt>
      <trkpt lat="45.83029" lon="2.95845">
        <ele>1018.17</ele>
        <time>2015-08-10T12:08:06Z</time>
      </trkpt>
      <trkpt lat="45.83031" lon="2.95841">
        <ele>1017.69</ele>
        <time>2015-08-10T12:08:25Z</time>
      </trkpt>
      <trkpt lat="45.83033" lon="2.95848">
        <ele>1016.73</ele>
        <time>2015-08-10T12:08:41Z</time>
      </trkpt>
      <trkpt lat="45.83033" lon="2.95848">
        <ele>1017.21</ele>
        <time>2015-08-10T12:08:59Z</time>
      </trkpt>
      <trkpt lat="45.83032" lon="2.95848">
        <ele>1017.21</ele>
        <time>2015-08-10T12:09:25Z</time>
      </trkpt>
      <trkpt lat="45.83039" lon="2.9584">
        <ele>1016.73</ele>
        <time>2015-08-10T12:09:38Z</time>
      </trkpt>
      <trkpt lat="45.83044" lon="2.95833">
        <ele>1016.73</ele>
        <time>2015-08-10T12:09:49Z</time>
      </trkpt>
      <trkpt lat="45.83046" lon="2.95832">
        <ele>1016.73</ele>
        <time>2015-08-10T12:09:53Z</time>
      </trkpt>
      <trkpt lat="45.8305" lon="2.9583">
        <ele>1017.21</ele>
        <time>2015-08-10T12:09:59Z</time>
      </trkpt>
      <trkpt lat="45.83065" lon="2.95818">
        <ele>1018.17</ele>
        <time>2015-08-10T12:10:13Z</time>
      </trkpt>
      <trkpt lat="45.83076" lon="2.95804">
        <ele>1018.17</ele>
        <time>2015-08-10T12:10:24Z</time>
      </trkpt>
      <trkpt lat="45.83076" lon="2.95803">
        <ele>1018.65</ele>
        <time>2015-08-10T12:10:26Z</time>
      </trkpt>
      <trkpt lat="45.83087" lon="2.95785">
        <ele>1018.65</ele>
        <time>2015-08-10T12:10:38Z</time>
      </trkpt>
      <trkpt lat="45.83088" lon="2.95781">
        <ele>1018.65</ele>
        <time>2015-08-10T12:10:40Z</time>
      </trkpt>
      <trkpt lat="45.83094" lon="2.95762">
        <ele>1019.62</ele>
        <time>2015-08-10T12:10:54Z</time>
      </trkpt>
      <trkpt lat="45.83097" lon="2.95754">
        <ele>1018.65</ele>
        <time>2015-08-10T12:11:00Z</time>
      </trkpt>
      <trkpt lat="45.83105" lon="2.95732">
        <ele>1020.1</ele>
        <time>2015-08-10T12:11:15Z</time>
      </trkpt>
      <trkpt lat="45.83111" lon="2.95711">
        <ele>1021.06</ele>
        <time>2015-08-10T12:11:29Z</time>
      </trkpt>
      <trkpt lat="45.83115" lon="2.95688">
        <ele>1021.06</ele>
        <time>2015-08-10T12:11:41Z</time>
      </trkpt>
      <trkpt lat="45.83118" lon="2.95674">
        <ele>1021.06</ele>
        <time>2015-08-10T12:11:51Z</time>
      </trkpt>
      <trkpt lat="45.83118" lon="2.95647">
        <ele>1020.58</ele>
        <time>2015-08-10T12:12:04Z</time>
      </trkpt>
      <trkpt lat="45.8312" lon="2.95618">
        <ele>1020.58</ele>
        <time>2015-08-10T12:12:19Z</time>
      </trkpt>
      <trkpt lat="45.83119" lon="2.95607">
        <ele>1020.58</ele>
        <time>2015-08-10T12:12:25Z</time>
      </trkpt>
      <trkpt lat="45.83117" lon="2.95594">
        <ele>1019.62</ele>
        <time>2015-08-10T12:12:34Z</time>
      </trkpt>
      <trkpt lat="45.83115" lon="2.95572">
        <ele>1019.13</ele>
        <time>2015-08-10T12:12:47Z</time>
      </trkpt>
      <trkpt lat="45.83115" lon="2.95555">
        <ele>1019.13</ele>
        <time>2015-08-10T12:13:00Z</time>
      </trkpt>
      <trkpt lat="45.83115" lon="2.95528">
        <ele>1020.1</ele>
        <time>2015-08-10T12:13:15Z</time>
      </trkpt>
      <trkpt lat="45.83115" lon="2.95519">
        <ele>1019.62</ele>
        <time>2015-08-10T12:13:20Z</time>
      </trkpt>
      <trkpt lat="45.83113" lon="2.95512">
        <ele>1019.62</ele>
        <time>2015-08-10T12:13:24Z</time>
      </trkpt>
      <trkpt lat="45.83113" lon="2.95504">
        <ele>1020.58</ele>
        <time>2015-08-10T12:13:29Z</time>
      </trkpt>
      <trkpt lat="45.83114" lon="2.95491">
        <ele>1020.58</ele>
        <time>2015-08-10T12:13:37Z</time>
      </trkpt>
      <trkpt lat="45.83114" lon="2.95479">
        <ele>1021.06</ele>
        <time>2015-08-10T12:13:45Z</time>
      </trkpt>
      <trkpt lat="45.83113" lon="2.9546">
        <ele>1022.02</ele>
        <time>2015-08-10T12:13:55Z</time>
      </trkpt>
      <trkpt lat="45.83109" lon="2.95434">
        <ele>1022.5</ele>
        <time>2015-08-10T12:14:11Z</time>
      </trkpt>
      <trkpt lat="45.83105" lon="2.95422">
        <ele>1022.98</ele>
        <time>2015-08-10T12:14:19Z</time>
      </trkpt>
      <trkpt lat="45.83101" lon="2.95407">
        <ele>1023.46</ele>
        <time>2015-08-10T12:14:27Z</time>
      </trkpt>
      <trkpt lat="45.83093" lon="2.95395">
        <ele>1023.94</ele>
        <time>2015-08-10T12:14:40Z</time>
      </trkpt>
      <trkpt lat="45.83089" lon="2.95382">
        <ele>1023.46</ele>
        <time>2015-08-10T12:14:59Z</time>
      </trkpt>
      <trkpt lat="45.83085" lon="2.95368">
        <ele>1023.46</ele>
        <time>2015-08-10T12:15:13Z</time>
      </trkpt>
      <trkpt lat="45.83082" lon="2.95369">
        <ele>1023.46</ele>
        <time>2015-08-10T12:15:31Z</time>
      </trkpt>
      <trkpt lat="45.83083" lon="2.9537">
        <ele>1023.46</ele>
        <time>2015-08-10T12:15:51Z</time>
      </trkpt>
      <trkpt lat="45.8309" lon="2.95364">
        <ele>1023.46</ele>
        <time>2015-08-10T12:16:17Z</time>
      </trkpt>
      <trkpt lat="45.83089" lon="2.95364">
        <ele>1022.98</ele>
        <time>2015-08-10T12:16:36Z</time>
      </trkpt>
      <trkpt lat="45.83081" lon="2.95365">
        <ele>1023.46</ele>
        <time>2015-08-10T12:16:50Z</time>
      </trkpt>
      <trkpt lat="45.83075" lon="2.95355">
        <ele>1022.98</ele>
        <time>2015-08-10T12:17:07Z</time>
      </trkpt>
      <trkpt lat="45.83069" lon="2.95337">
        <ele>1023.46</ele>
        <time>2015-08-10T12:17:22Z</time>
      </trkpt>
      <trkpt lat="45.83063" lon="2.95331">
        <ele>1022.98</ele>
        <time>2015-08-10T12:17:35Z</time>
      </trkpt>
      <trkpt lat="45.83072" lon="2.95351">
        <ele>1022.98</ele>
        <time>2015-08-10T12:17:52Z</time>
      </trkpt>
      <trkpt lat="45.83082" lon="2.95375">
        <ele>1023.46</ele>
        <time>2015-08-10T12:18:08Z</time>
      </trkpt>
      <trkpt lat="45.83081" lon="2.95377">
        <ele>1024.42</ele>
        <time>2015-08-10T12:18:11Z</time>
      </trkpt>
      <trkpt lat="45.8307" lon="2.95381">
        <ele>1027.31</ele>
        <time>2015-08-10T12:18:26Z</time>
      </trkpt>
      <trkpt lat="45.83054" lon="2.95377">
        <ele>1029.23</ele>
        <time>2015-08-10T12:18:41Z</time>
      </trkpt>
      <trkpt lat="45.83053" lon="2.95374">
        <ele>1029.71</ele>
        <time>2015-08-10T12:18:45Z</time>
      </trkpt>
      <trkpt lat="45.83042" lon="2.95358">
        <ele>1031.15</ele>
        <time>2015-08-10T12:19:00Z</time>
      </trkpt>
      <trkpt lat="45.83041" lon="2.95356">
        <ele>1031.63</ele>
        <time>2015-08-10T12:19:03Z</time>
      </trkpt>
      <trkpt lat="45.83032" lon="2.95339">
        <ele>1033.07</ele>
        <time>2015-08-10T12:19:18Z</time>
      </trkpt>
      <trkpt lat="45.83021" lon="2.95323">
        <ele>1034.52</ele>
        <time>2015-08-10T12:19:33Z</time>
      </trkpt>
      <trkpt lat="45.83014" lon="2.95316">
        <ele>1035.96</ele>
        <time>2015-08-10T12:19:42Z</time>
      </trkpt>
      <trkpt lat="45.83001" lon="2.953">
        <ele>1038.36</ele>
        <time>2015-08-10T12:19:58Z</time>
      </trkpt>
      <trkpt lat="45.82989" lon="2.95282">
        <ele>1040.28</ele>
        <time>2015-08-10T12:20:15Z</time>
      </trkpt>
      <trkpt lat="45.82987" lon="2.9528">
        <ele>1039.8</ele>
        <time>2015-08-10T12:20:17Z</time>
      </trkpt>
      <trkpt lat="45.82974" lon="2.95268">
        <ele>1040.28</ele>
        <time>2015-08-10T12:20:26Z</time>
      </trkpt>
      <trkpt lat="45.8296" lon="2.95255">
        <ele>1041.73</ele>
        <time>2015-08-10T12:20:41Z</time>
      </trkpt>
      <trkpt lat="45.82951" lon="2.95247">
        <ele>1043.65</ele>
        <time>2015-08-10T12:20:54Z</time>
      </trkpt>
      <trkpt lat="45.82947" lon="2.95242">
        <ele>1044.61</ele>
        <time>2015-08-10T12:20:59Z</time>
      </trkpt>
      <trkpt lat="45.8293" lon="2.95229">
        <ele>1046.05</ele>
        <time>2015-08-10T12:21:15Z</time>
      </trkpt>
      <trkpt lat="45.82918" lon="2.95221">
        <ele>1047.01</ele>
        <time>2015-08-10T12:21:29Z</time>
      </trkpt>
      <trkpt lat="45.82906" lon="2.95209">
        <ele>1048.45</ele>
        <time>2015-08-10T12:21:45Z</time>
      </trkpt>
      <trkpt lat="45.82895" lon="2.95202">
        <ele>1050.86</ele>
        <time>2015-08-10T12:22:02Z</time>
      </trkpt>
      <trkpt lat="45.82893" lon="2.95203">
        <ele>1051.34</ele>
        <time>2015-08-10T12:22:05Z</time>
      </trkpt>
      <trkpt lat="45.82879" lon="2.95202">
        <ele>1052.78</ele>
        <time>2015-08-10T12:22:19Z</time>
      </trkpt>
      <trkpt lat="45.82853" lon="2.95198">
        <ele>1054.7</ele>
        <time>2015-08-10T12:22:36Z</time>
      </trkpt>
      <trkpt lat="45.82838" lon="2.95196">
        <ele>1057.11</ele>
        <time>2015-08-10T12:22:55Z</time>
      </trkpt>
      <trkpt lat="45.82811" lon="2.95199">
        <ele>1059.99</ele>
        <time>2015-08-10T12:23:19Z</time>
      </trkpt>
      <trkpt lat="45.82792" lon="2.95195">
        <ele>1062.87</ele>
        <time>2015-08-10T12:23:38Z</time>
      </trkpt>
      <trkpt lat="45.82774" lon="2.95201">
        <ele>1065.28</ele>
        <time>2015-08-10T12:23:57Z</time>
      </trkpt>
      <trkpt lat="45.8276" lon="2.95205">
        <ele>1067.68</ele>
        <time>2015-08-10T12:24:13Z</time>
      </trkpt>
      <trkpt lat="45.82742" lon="2.95216">
        <ele>1069.12</ele>
        <time>2015-08-10T12:24:29Z</time>
      </trkpt>
      <trkpt lat="45.82727" lon="2.95216">
        <ele>1069.12</ele>
        <time>2015-08-10T12:24:43Z</time>
      </trkpt>
      <trkpt lat="45.82725" lon="2.95218">
        <ele>1069.12</ele>
        <time>2015-08-10T12:24:45Z</time>
      </trkpt>
      <trkpt lat="45.82711" lon="2.95228">
        <ele>1069.6</ele>
        <time>2015-08-10T12:24:59Z</time>
      </trkpt>
      <trkpt lat="45.82693" lon="2.95232">
        <ele>1070.08</ele>
        <time>2015-08-10T12:25:15Z</time>
      </trkpt>
      <trkpt lat="45.82685" lon="2.95236">
        <ele>1070.57</ele>
        <time>2015-08-10T12:25:34Z</time>
      </trkpt>
      <trkpt lat="45.82677" lon="2.95232">
        <ele>1070.57</ele>
        <time>2015-08-10T12:25:50Z</time>
      </trkpt>
      <trkpt lat="45.82672" lon="2.9523">
        <ele>1069.6</ele>
        <time>2015-08-10T12:25:55Z</time>
      </trkpt>
      <trkpt lat="45.82661" lon="2.95227">
        <ele>1069.6</ele>
        <time>2015-08-10T12:26:07Z</time>
      </trkpt>
      <trkpt lat="45.82657" lon="2.95229">
        <ele>1069.12</ele>
        <time>2015-08-10T12:26:25Z</time>
      </trkpt>
      <trkpt lat="45.82656" lon="2.95229">
        <ele>1069.6</ele>
        <time>2015-08-10T12:26:28Z</time>
      </trkpt>
      <trkpt lat="45.82646" lon="2.95236">
        <ele>1070.08</ele>
        <time>2015-08-10T12:26:43Z</time>
      </trkpt>
      <trkpt lat="45.82645" lon="2.95243">
        <ele>1070.57</ele>
        <time>2015-08-10T12:26:56Z</time>
      </trkpt>
      <trkpt lat="45.82635" lon="2.95251">
        <ele>1070.08</ele>
        <time>2015-08-10T12:27:12Z</time>
      </trkpt>
      <trkpt lat="45.82621" lon="2.95268">
        <ele>1071.05</ele>
        <time>2015-08-10T12:27:24Z</time>
      </trkpt>
      <trkpt lat="45.82618" lon="2.95278">
        <ele>1072.01</ele>
        <time>2015-08-10T12:27:31Z</time>
      </trkpt>
      <trkpt lat="45.82607" lon="2.95304">
        <ele>1073.93</ele>
        <time>2015-08-10T12:27:47Z</time>
      </trkpt>
      <trkpt lat="45.82607" lon="2.95316">
        <ele>1074.41</ele>
        <time>2015-08-10T12:27:53Z</time>
      </trkpt>
      <trkpt lat="45.82602" lon="2.95328">
        <ele>1074.89</ele>
        <time>2015-08-10T12:28:02Z</time>
      </trkpt>
      <trkpt lat="45.82597" lon="2.95339">
        <ele>1074.89</ele>
        <time>2015-08-10T12:28:12Z</time>
      </trkpt>
      <trkpt lat="45.82592" lon="2.95352">
        <ele>1074.41</ele>
        <time>2015-08-10T12:28:26Z</time>
      </trkpt>
      <trkpt lat="45.82594" lon="2.95348">
        <ele>1074.41</ele>
        <time>2015-08-10T12:28:41Z</time>
      </trkpt>
      <trkpt lat="45.82595" lon="2.95346">
        <ele>1074.41</ele>
        <time>2015-08-10T12:28:42Z</time>
      </trkpt>
      <trkpt lat="45.82597" lon="2.95339">
        <ele>1074.89</ele>
        <time>2015-08-10T12:28:48Z</time>
      </trkpt>
      <trkpt lat="45.82596" lon="2.95329">
        <ele>1075.37</ele>
        <time>2015-08-10T12:28:53Z</time>
      </trkpt>
      <trkpt lat="45.82602" lon="2.95313">
        <ele>1075.37</ele>
        <time>2015-08-10T12:29:06Z</time>
      </trkpt>
      <trkpt lat="45.82603" lon="2.95308">
        <ele>1074.89</ele>
        <time>2015-08-10T12:29:10Z</time>
      </trkpt>
      <trkpt lat="45.82603" lon="2.95304">
        <ele>1075.37</ele>
        <time>2015-08-10T12:29:13Z</time>
      </trkpt>
      <trkpt lat="45.82606" lon="2.95284">
        <ele>1072.97</ele>
        <time>2015-08-10T12:29:27Z</time>
      </trkpt>
      <trkpt lat="45.82607" lon="2.9528">
        <ele>1072.49</ele>
        <time>2015-08-10T12:29:30Z</time>
      </trkpt>
      <trkpt lat="45.82611" lon="2.95271">
        <ele>1071.53</ele>
        <time>2015-08-10T12:29:37Z</time>
      </trkpt>
      <trkpt lat="45.82629" lon="2.95254">
        <ele>1071.53</ele>
        <time>2015-08-10T12:29:53Z</time>
      </trkpt>
      <trkpt lat="45.82635" lon="2.95248">
        <ele>1072.01</ele>
        <time>2015-08-10T12:30:02Z</time>
      </trkpt>
      <trkpt lat="45.8264" lon="2.95247">
        <ele>1071.53</ele>
        <time>2015-08-10T12:30:08Z</time>
      </trkpt>
      <trkpt lat="45.82657" lon="2.95239">
        <ele>1071.05</ele>
        <time>2015-08-10T12:30:21Z</time>
      </trkpt>
      <trkpt lat="45.82662" lon="2.9523">
        <ele>1070.57</ele>
        <time>2015-08-10T12:30:34Z</time>
      </trkpt>
      <trkpt lat="45.82662" lon="2.9523">
        <ele>1070.08</ele>
        <time>2015-08-10T12:30:52Z</time>
      </trkpt>
      <trkpt lat="45.82659" lon="2.95224">
        <ele>1070.08</ele>
        <time>2015-08-10T12:31:18Z</time>
      </trkpt>
      <trkpt lat="45.8266" lon="2.95218">
        <ele>1070.08</ele>
        <time>2015-08-10T12:31:52Z</time>
      </trkpt>
      <trkpt lat="45.82662" lon="2.95217">
        <ele>1070.08</ele>
        <time>2015-08-10T12:32:22Z</time>
      </trkpt>
      <trkpt lat="45.82663" lon="2.95222">
        <ele>1070.08</ele>
        <time>2015-08-10T12:32:49Z</time>
      </trkpt>
      <trkpt lat="45.82664" lon="2.95222">
        <ele>1070.08</ele>
        <time>2015-08-10T12:33:14Z</time>
      </trkpt>
      <trkpt lat="45.82664" lon="2.95226">
        <ele>1070.08</ele>
        <time>2015-08-10T12:33:41Z</time>
      </trkpt>
      <trkpt lat="45.82662" lon="2.9523">
        <ele>1070.08</ele>
        <time>2015-08-10T12:33:58Z</time>
      </trkpt>
      <trkpt lat="45.82661" lon="2.95227">
        <ele>1070.08</ele>
        <time>2015-08-10T12:34:24Z</time>
      </trkpt>
      <trkpt lat="45.82662" lon="2.95225">
        <ele>1070.08</ele>
        <time>2015-08-10T12:34:47Z</time>
      </trkpt>
      <trkpt lat="45.82664" lon="2.95223">
        <ele>1070.08</ele>
        <time>2015-08-10T12:35:16Z</time>
      </trkpt>
      <trkpt lat="45.82662" lon="2.95223">
        <ele>1069.6</ele>
        <time>2015-08-10T12:35:49Z</time>
      </trkpt>
      <trkpt lat="45.82663" lon="2.95225">
        <ele>1070.08</ele>
        <time>2015-08-10T12:36:22Z</time>
      </trkpt>
      <trkpt lat="45.82666" lon="2.95225">
        <ele>1071.05</ele>
        <time>2015-08-10T12:36:53Z</time>
      </trkpt>
      <trkpt lat="45.82665" lon="2.95223">
        <ele>1070.08</ele>
        <time>2015-08-10T12:37:24Z</time>
      </trkpt>
      <trkpt lat="45.82664" lon="2.95217">
        <ele>1070.57</ele>
        <time>2015-08-10T12:37:52Z</time>
      </trkpt>
      <trkpt lat="45.82664" lon="2.95217">
        <ele>1070.57</ele>
        <time>2015-08-10T12:38:27Z</time>
      </trkpt>
      <trkpt lat="45.82663" lon="2.95214">
        <ele>1070.57</ele>
        <time>2015-08-10T12:39:02Z</time>
      </trkpt>
      <trkpt lat="45.82661" lon="2.95219">
        <ele>1070.57</ele>
        <time>2015-08-10T12:39:29Z</time>
      </trkpt>
      <trkpt lat="45.82662" lon="2.95227">
        <ele>1071.05</ele>
        <time>2015-08-10T12:40:08Z</time>
      </trkpt>
      <trkpt lat="45.82667" lon="2.95226">
        <ele>1070.57</ele>
        <time>2015-08-10T12:40:34Z</time>
      </trkpt>
      <trkpt lat="45.8267" lon="2.95229">
        <ele>1071.05</ele>
        <time>2015-08-10T12:41:05Z</time>
      </trkpt>
      <trkpt lat="45.82671" lon="2.95229">
        <ele>1070.57</ele>
        <time>2015-08-10T12:41:38Z</time>
      </trkpt>
      <trkpt lat="45.82669" lon="2.95226">
        <ele>1070.57</ele>
        <time>2015-08-10T12:42:04Z</time>
      </trkpt>
      <trkpt lat="45.82669" lon="2.95223">
        <ele>1070.57</ele>
        <time>2015-08-10T12:42:34Z</time>
      </trkpt>
      <trkpt lat="45.82669" lon="2.9523">
        <ele>1071.05</ele>
        <time>2015-08-10T12:43:06Z</time>
      </trkpt>
      <trkpt lat="45.82664" lon="2.95228">
        <ele>1072.01</ele>
        <time>2015-08-10T12:43:35Z</time>
      </trkpt>
      <trkpt lat="45.82664" lon="2.95229">
        <ele>1072.01</ele>
        <time>2015-08-10T12:43:58Z</time>
      </trkpt>
      <trkpt lat="45.82662" lon="2.95229">
        <ele>1072.01</ele>
        <time>2015-08-10T12:44:22Z</time>
      </trkpt>
      <trkpt lat="45.82662" lon="2.95234">
        <ele>1072.01</ele>
        <time>2015-08-10T12:44:46Z</time>
      </trkpt>
      <trkpt lat="45.8266" lon="2.95233">
        <ele>1072.49</ele>
        <time>2015-08-10T12:45:01Z</time>
      </trkpt>
      <trkpt lat="45.8266" lon="2.95225">
        <ele>1072.01</ele>
        <time>2015-08-10T12:45:25Z</time>
      </trkpt>
      <trkpt lat="45.82661" lon="2.95225">
        <ele>1072.01</ele>
        <time>2015-08-10T12:45:46Z</time>
      </trkpt>
      <trkpt lat="45.82665" lon="2.95227">
        <ele>1073.45</ele>
        <time>2015-08-10T12:46:11Z</time>
      </trkpt>
      <trkpt lat="45.82663" lon="2.95235">
        <ele>1072.97</ele>
        <time>2015-08-10T12:46:28Z</time>
      </trkpt>
      <trkpt lat="45.82651" lon="2.95225">
        <ele>1072.97</ele>
        <time>2015-08-10T12:46:44Z</time>
      </trkpt>
      <trkpt lat="45.82648" lon="2.95216">
        <ele>1072.01</ele>
        <time>2015-08-10T12:47:02Z</time>
      </trkpt>
      <trkpt lat="45.82647" lon="2.95214">
        <ele>1072.49</ele>
        <time>2015-08-10T12:47:05Z</time>
      </trkpt>
      <trkpt lat="45.82638" lon="2.95203">
        <ele>1072.97</ele>
        <time>2015-08-10T12:47:19Z</time>
      </trkpt>
      <trkpt lat="45.82635" lon="2.95199">
        <ele>1072.97</ele>
        <time>2015-08-10T12:47:22Z</time>
      </trkpt>
      <trkpt lat="45.82629" lon="2.95196">
        <ele>1073.93</ele>
        <time>2015-08-10T12:47:28Z</time>
      </trkpt>
      <trkpt lat="45.82613" lon="2.95187">
        <ele>1076.33</ele>
        <time>2015-08-10T12:47:43Z</time>
      </trkpt>
      <trkpt lat="45.82602" lon="2.9518">
        <ele>1076.81</ele>
        <time>2015-08-10T12:47:55Z</time>
      </trkpt>
      <trkpt lat="45.82595" lon="2.95175">
        <ele>1077.29</ele>
        <time>2015-08-10T12:48:06Z</time>
      </trkpt>
      <trkpt lat="45.82583" lon="2.95169">
        <ele>1077.78</ele>
        <time>2015-08-10T12:48:19Z</time>
      </trkpt>
      <trkpt lat="45.82583" lon="2.95163">
        <ele>1078.26</ele>
        <time>2015-08-10T12:48:31Z</time>
      </trkpt>
      <trkpt lat="45.82582" lon="2.95161">
        <ele>1078.26</ele>
        <time>2015-08-10T12:48:36Z</time>
      </trkpt>
      <trkpt lat="45.82574" lon="2.95159">
        <ele>1078.74</ele>
        <time>2015-08-10T12:48:45Z</time>
      </trkpt>
      <trkpt lat="45.82574" lon="2.95162">
        <ele>1077.78</ele>
        <time>2015-08-10T12:49:06Z</time>
      </trkpt>
      <trkpt lat="45.82575" lon="2.95176">
        <ele>1078.26</ele>
        <time>2015-08-10T12:49:27Z</time>
      </trkpt>
      <trkpt lat="45.82573" lon="2.95171">
        <ele>1078.26</ele>
        <time>2015-08-10T12:49:44Z</time>
      </trkpt>
      <trkpt lat="45.82573" lon="2.9517">
        <ele>1078.26</ele>
        <time>2015-08-10T12:49:49Z</time>
      </trkpt>
      <trkpt lat="45.82572" lon="2.95171">
        <ele>1078.26</ele>
        <time>2015-08-10T12:50:06Z</time>
      </trkpt>
      <trkpt lat="45.82566" lon="2.95164">
        <ele>1077.78</ele>
        <time>2015-08-10T12:50:13Z</time>
      </trkpt>
      <trkpt lat="45.82554" lon="2.95159">
        <ele>1078.74</ele>
        <time>2015-08-10T12:50:27Z</time>
      </trkpt>
      <trkpt lat="45.82545" lon="2.95161">
        <ele>1080.18</ele>
        <time>2015-08-10T12:50:40Z</time>
      </trkpt>
      <trkpt lat="45.82542" lon="2.9516">
        <ele>1080.66</ele>
        <time>2015-08-10T12:50:56Z</time>
      </trkpt>
      <trkpt lat="45.82544" lon="2.95159">
        <ele>1079.7</ele>
        <time>2015-08-10T12:51:09Z</time>
      </trkpt>
      <trkpt lat="45.82544" lon="2.9516">
        <ele>1080.18</ele>
        <time>2015-08-10T12:51:22Z</time>
      </trkpt>
      <trkpt lat="45.82542" lon="2.95163">
        <ele>1079.7</ele>
        <time>2015-08-10T12:51:39Z</time>
      </trkpt>
      <trkpt lat="45.8254" lon="2.95167">
        <ele>1080.66</ele>
        <time>2015-08-10T12:51:58Z</time>
      </trkpt>
      <trkpt lat="45.82536" lon="2.95165">
        <ele>1080.66</ele>
        <time>2015-08-10T12:52:12Z</time>
      </trkpt>
      <trkpt lat="45.82526" lon="2.95164">
        <ele>1080.66</ele>
        <time>2015-08-10T12:52:24Z</time>
      </trkpt>
      <trkpt lat="45.82517" lon="2.95164">
        <ele>1082.1</ele>
        <time>2015-08-10T12:52:36Z</time>
      </trkpt>
      <trkpt lat="45.82514" lon="2.95163">
        <ele>1082.58</ele>
        <time>2015-08-10T12:52:40Z</time>
      </trkpt>
      <trkpt lat="45.82507" lon="2.95163">
        <ele>1085.95</ele>
        <time>2015-08-10T12:52:53Z</time>
      </trkpt>
      <trkpt lat="45.82504" lon="2.95149">
        <ele>1085.95</ele>
        <time>2015-08-10T12:53:06Z</time>
      </trkpt>
      <trkpt lat="45.82495" lon="2.95136">
        <ele>1086.91</ele>
        <time>2015-08-10T12:53:20Z</time>
      </trkpt>
      <trkpt lat="45.82492" lon="2.95135">
        <ele>1087.87</ele>
        <time>2015-08-10T12:53:24Z</time>
      </trkpt>
      <trkpt lat="45.82484" lon="2.95128">
        <ele>1089.31</ele>
        <time>2015-08-10T12:53:36Z</time>
      </trkpt>
      <trkpt lat="45.82479" lon="2.95121">
        <ele>1089.79</ele>
        <time>2015-08-10T12:53:45Z</time>
      </trkpt>
      <trkpt lat="45.82474" lon="2.95109">
        <ele>1091.71</ele>
        <time>2015-08-10T12:53:57Z</time>
      </trkpt>
      <trkpt lat="45.8247" lon="2.95104">
        <ele>1092.2</ele>
        <time>2015-08-10T12:54:04Z</time>
      </trkpt>
      <trkpt lat="45.82461" lon="2.95096">
        <ele>1094.12</ele>
        <time>2015-08-10T12:54:15Z</time>
      </trkpt>
      <trkpt lat="45.82456" lon="2.95095">
        <ele>1094.6</ele>
        <time>2015-08-10T12:54:22Z</time>
      </trkpt>
      <trkpt lat="45.82453" lon="2.95094">
        <ele>1095.08</ele>
        <time>2015-08-10T12:54:25Z</time>
      </trkpt>
      <trkpt lat="45.8245" lon="2.95092">
        <ele>1095.56</ele>
        <time>2015-08-10T12:54:29Z</time>
      </trkpt>
      <trkpt lat="45.82446" lon="2.95092">
        <ele>1096.52</ele>
        <time>2015-08-10T12:54:35Z</time>
      </trkpt>
      <trkpt lat="45.82439" lon="2.95092">
        <ele>1097</ele>
        <time>2015-08-10T12:54:48Z</time>
      </trkpt>
      <trkpt lat="45.82437" lon="2.95089">
        <ele>1097</ele>
        <time>2015-08-10T12:54:57Z</time>
      </trkpt>
      <trkpt lat="45.82435" lon="2.95086">
        <ele>1097.48</ele>
        <time>2015-08-10T12:55:00Z</time>
      </trkpt>
      <trkpt lat="45.82432" lon="2.95083">
        <ele>1097.96</ele>
        <time>2015-08-10T12:55:04Z</time>
      </trkpt>
      <trkpt lat="45.82429" lon="2.95081">
        <ele>1098.92</ele>
        <time>2015-08-10T12:55:07Z</time>
      </trkpt>
      <trkpt lat="45.82427" lon="2.95078">
        <ele>1098.92</ele>
        <time>2015-08-10T12:55:10Z</time>
      </trkpt>
      <trkpt lat="45.82425" lon="2.95075">
        <ele>1099.89</ele>
        <time>2015-08-10T12:55:14Z</time>
      </trkpt>
      <trkpt lat="45.82425" lon="2.95072">
        <ele>1100.37</ele>
        <time>2015-08-10T12:55:17Z</time>
      </trkpt>
      <trkpt lat="45.82424" lon="2.9507">
        <ele>1100.85</ele>
        <time>2015-08-10T12:55:20Z</time>
      </trkpt>
      <trkpt lat="45.82423" lon="2.95068">
        <ele>1101.33</ele>
        <time>2015-08-10T12:55:23Z</time>
      </trkpt>
      <trkpt lat="45.82423" lon="2.95065">
        <ele>1102.29</ele>
        <time>2015-08-10T12:55:26Z</time>
      </trkpt>
      <trkpt lat="45.82426" lon="2.9506">
        <ele>1102.77</ele>
        <time>2015-08-10T12:55:36Z</time>
      </trkpt>
      <trkpt lat="45.82426" lon="2.95058">
        <ele>1103.25</ele>
        <time>2015-08-10T12:55:39Z</time>
      </trkpt>
      <trkpt lat="45.82428" lon="2.95055">
        <ele>1104.21</ele>
        <time>2015-08-10T12:55:43Z</time>
      </trkpt>
      <trkpt lat="45.82432" lon="2.95042">
        <ele>1106.61</ele>
        <time>2015-08-10T12:55:53Z</time>
      </trkpt>
      <trkpt lat="45.82433" lon="2.95039">
        <ele>1107.58</ele>
        <time>2015-08-10T12:55:57Z</time>
      </trkpt>
      <trkpt lat="45.82434" lon="2.95036">
        <ele>1107.58</ele>
        <time>2015-08-10T12:56:00Z</time>
      </trkpt>
      <trkpt lat="45.82433" lon="2.95028">
        <ele>1107.1</ele>
        <time>2015-08-10T12:56:08Z</time>
      </trkpt>
      <trkpt lat="45.82429" lon="2.95025">
        <ele>1107.58</ele>
        <time>2015-08-10T12:56:13Z</time>
      </trkpt>
      <trkpt lat="45.82427" lon="2.95024">
        <ele>1108.06</ele>
        <time>2015-08-10T12:56:16Z</time>
      </trkpt>
      <trkpt lat="45.82424" lon="2.95023">
        <ele>1108.54</ele>
        <time>2015-08-10T12:56:20Z</time>
      </trkpt>
      <trkpt lat="45.82421" lon="2.95024">
        <ele>1109.02</ele>
        <time>2015-08-10T12:56:23Z</time>
      </trkpt>
      <trkpt lat="45.82419" lon="2.95025">
        <ele>1109.02</ele>
        <time>2015-08-10T12:56:26Z</time>
      </trkpt>
      <trkpt lat="45.82416" lon="2.95023">
        <ele>1109.5</ele>
        <time>2015-08-10T12:56:29Z</time>
      </trkpt>
      <trkpt lat="45.82412" lon="2.95021">
        <ele>1110.46</ele>
        <time>2015-08-10T12:56:35Z</time>
      </trkpt>
      <trkpt lat="45.82409" lon="2.9502">
        <ele>1110.46</ele>
        <time>2015-08-10T12:56:38Z</time>
      </trkpt>
      <trkpt lat="45.82407" lon="2.95021">
        <ele>1110.94</ele>
        <time>2015-08-10T12:56:41Z</time>
      </trkpt>
      <trkpt lat="45.82403" lon="2.95022">
        <ele>1111.42</ele>
        <time>2015-08-10T12:56:45Z</time>
      </trkpt>
      <trkpt lat="45.82401" lon="2.95023">
        <ele>1111.42</ele>
        <time>2015-08-10T12:56:48Z</time>
      </trkpt>
      <trkpt lat="45.82394" lon="2.95028">
        <ele>1112.38</ele>
        <time>2015-08-10T12:56:58Z</time>
      </trkpt>
      <trkpt lat="45.82393" lon="2.95027">
        <ele>1111.9</ele>
        <time>2015-08-10T12:57:21Z</time>
      </trkpt>
      <trkpt lat="45.82392" lon="2.95027">
        <ele>1111.9</ele>
        <time>2015-08-10T12:57:54Z</time>
      </trkpt>
      <trkpt lat="45.82391" lon="2.95029">
        <ele>1111.42</ele>
        <time>2015-08-10T12:58:12Z</time>
      </trkpt>
      <trkpt lat="45.82385" lon="2.9504">
        <ele>1112.38</ele>
        <time>2015-08-10T12:58:20Z</time>
      </trkpt>
      <trkpt lat="45.82384" lon="2.95046">
        <ele>1112.38</ele>
        <time>2015-08-10T12:58:24Z</time>
      </trkpt>
      <trkpt lat="45.82382" lon="2.95053">
        <ele>1112.38</ele>
        <time>2015-08-10T12:58:28Z</time>
      </trkpt>
      <trkpt lat="45.82381" lon="2.95056">
        <ele>1112.38</ele>
        <time>2015-08-10T12:58:31Z</time>
      </trkpt>
      <trkpt lat="45.8238" lon="2.95062">
        <ele>1112.86</ele>
        <time>2015-08-10T12:58:35Z</time>
      </trkpt>
      <trkpt lat="45.82379" lon="2.95067">
        <ele>1112.86</ele>
        <time>2015-08-10T12:58:39Z</time>
      </trkpt>
      <trkpt lat="45.82378" lon="2.95072">
        <ele>1113.34</ele>
        <time>2015-08-10T12:58:50Z</time>
      </trkpt>
      <trkpt lat="45.82378" lon="2.95074">
        <ele>1113.82</ele>
        <time>2015-08-10T12:58:57Z</time>
      </trkpt>
      <trkpt lat="45.82377" lon="2.95077">
        <ele>1113.82</ele>
        <time>2015-08-10T12:59:00Z</time>
      </trkpt>
      <trkpt lat="45.82378" lon="2.95095">
        <ele>1114.31</ele>
        <time>2015-08-10T12:59:11Z</time>
      </trkpt>
      <trkpt lat="45.8238" lon="2.95104">
        <ele>1115.27</ele>
        <time>2015-08-10T12:59:18Z</time>
      </trkpt>
      <trkpt lat="45.82381" lon="2.95118">
        <ele>1115.27</ele>
        <time>2015-08-10T12:59:27Z</time>
      </trkpt>
      <trkpt lat="45.82382" lon="2.95126">
        <ele>1116.23</ele>
        <time>2015-08-10T12:59:31Z</time>
      </trkpt>
      <trkpt lat="45.82381" lon="2.95132">
        <ele>1115.75</ele>
        <time>2015-08-10T12:59:43Z</time>
      </trkpt>
      <trkpt lat="45.82381" lon="2.95134">
        <ele>1115.75</ele>
        <time>2015-08-10T12:59:52Z</time>
      </trkpt>
      <trkpt lat="45.82383" lon="2.95137">
        <ele>1116.23</ele>
        <time>2015-08-10T12:59:56Z</time>
      </trkpt>
      <trkpt lat="45.82382" lon="2.95139">
        <ele>1116.23</ele>
        <time>2015-08-10T12:59:59Z</time>
      </trkpt>
      <trkpt lat="45.82383" lon="2.95145">
        <ele>1115.75</ele>
        <time>2015-08-10T13:00:03Z</time>
      </trkpt>
      <trkpt lat="45.82385" lon="2.9515">
        <ele>1115.27</ele>
        <time>2015-08-10T13:00:07Z</time>
      </trkpt>
      <trkpt lat="45.82386" lon="2.95159">
        <ele>1114.79</ele>
        <time>2015-08-10T13:00:18Z</time>
      </trkpt>
      <trkpt lat="45.82387" lon="2.95159">
        <ele>1114.79</ele>
        <time>2015-08-10T13:00:20Z</time>
      </trkpt>
      <trkpt lat="45.82385" lon="2.95155">
        <ele>1114.79</ele>
        <time>2015-08-10T13:00:31Z</time>
      </trkpt>
      <trkpt lat="45.82385" lon="2.95158">
        <ele>1114.79</ele>
        <time>2015-08-10T13:00:33Z</time>
      </trkpt>
      <trkpt lat="45.82386" lon="2.95176">
        <ele>1113.82</ele>
        <time>2015-08-10T13:00:44Z</time>
      </trkpt>
      <trkpt lat="45.82386" lon="2.95187">
        <ele>1113.34</ele>
        <time>2015-08-10T13:00:50Z</time>
      </trkpt>
      <trkpt lat="45.82386" lon="2.95208">
        <ele>1111.9</ele>
        <time>2015-08-10T13:01:03Z</time>
      </trkpt>
      <trkpt lat="45.82387" lon="2.95218">
        <ele>1111.42</ele>
        <time>2015-08-10T13:01:08Z</time>
      </trkpt>
      <trkpt lat="45.8239" lon="2.95228">
        <ele>1109.98</ele>
        <time>2015-08-10T13:01:20Z</time>
      </trkpt>
      <trkpt lat="45.82392" lon="2.95238">
        <ele>1110.94</ele>
        <time>2015-08-10T13:01:28Z</time>
      </trkpt>
      <trkpt lat="45.82392" lon="2.95239">
        <ele>1110.46</ele>
        <time>2015-08-10T13:01:29Z</time>
      </trkpt>
      <trkpt lat="45.82393" lon="2.95249">
        <ele>1111.42</ele>
        <time>2015-08-10T13:01:37Z</time>
      </trkpt>
      <trkpt lat="45.82395" lon="2.95255">
        <ele>1111.42</ele>
        <time>2015-08-10T13:01:41Z</time>
      </trkpt>
      <trkpt lat="45.82398" lon="2.95266">
        <ele>1112.86</ele>
        <time>2015-08-10T13:01:52Z</time>
      </trkpt>
      <trkpt lat="45.82403" lon="2.9528">
        <ele>1114.31</ele>
        <time>2015-08-10T13:02:02Z</time>
      </trkpt>
      <trkpt lat="45.82403" lon="2.95281">
        <ele>1114.31</ele>
        <time>2015-08-10T13:02:03Z</time>
      </trkpt>
      <trkpt lat="45.82404" lon="2.95286">
        <ele>1114.79</ele>
        <time>2015-08-10T13:02:07Z</time>
      </trkpt>
      <trkpt lat="45.82406" lon="2.95291">
        <ele>1115.27</ele>
        <time>2015-08-10T13:02:11Z</time>
      </trkpt>
      <trkpt lat="45.8241" lon="2.95303">
        <ele>1115.75</ele>
        <time>2015-08-10T13:02:21Z</time>
      </trkpt>
      <trkpt lat="45.82412" lon="2.95307">
        <ele>1116.23</ele>
        <time>2015-08-10T13:02:24Z</time>
      </trkpt>
      <trkpt lat="45.82413" lon="2.9531">
        <ele>1116.71</ele>
        <time>2015-08-10T13:02:28Z</time>
      </trkpt>
      <trkpt lat="45.82418" lon="2.95319">
        <ele>1117.67</ele>
        <time>2015-08-10T13:02:36Z</time>
      </trkpt>
      <trkpt lat="45.8242" lon="2.95322">
        <ele>1118.15</ele>
        <time>2015-08-10T13:02:40Z</time>
      </trkpt>
      <trkpt lat="45.82424" lon="2.95328">
        <ele>1119.11</ele>
        <time>2015-08-10T13:02:47Z</time>
      </trkpt>
      <trkpt lat="45.82427" lon="2.95334">
        <ele>1119.59</ele>
        <time>2015-08-10T13:02:53Z</time>
      </trkpt>
      <trkpt lat="45.82427" lon="2.95335">
        <ele>1120.55</ele>
        <time>2015-08-10T13:02:56Z</time>
      </trkpt>
      <trkpt lat="45.8243" lon="2.9534">
        <ele>1121.03</ele>
        <time>2015-08-10T13:03:03Z</time>
      </trkpt>
      <trkpt lat="45.82435" lon="2.95348">
        <ele>1122</ele>
        <time>2015-08-10T13:03:12Z</time>
      </trkpt>
      <trkpt lat="45.82437" lon="2.95349">
        <ele>1122.96</ele>
        <time>2015-08-10T13:03:14Z</time>
      </trkpt>
      <trkpt lat="45.82439" lon="2.95352">
        <ele>1123.44</ele>
        <time>2015-08-10T13:03:18Z</time>
      </trkpt>
      <trkpt lat="45.82441" lon="2.95354">
        <ele>1123.44</ele>
        <time>2015-08-10T13:03:21Z</time>
      </trkpt>
      <trkpt lat="45.82442" lon="2.95356">
        <ele>1124.4</ele>
        <time>2015-08-10T13:03:24Z</time>
      </trkpt>
      <trkpt lat="45.82446" lon="2.95361">
        <ele>1124.4</ele>
        <time>2015-08-10T13:03:34Z</time>
      </trkpt>
      <trkpt lat="45.82447" lon="2.95363">
        <ele>1125.84</ele>
        <time>2015-08-10T13:03:37Z</time>
      </trkpt>
      <trkpt lat="45.8245" lon="2.95371">
        <ele>1126.8</ele>
        <time>2015-08-10T13:03:46Z</time>
      </trkpt>
      <trkpt lat="45.82453" lon="2.95376">
        <ele>1127.76</ele>
        <time>2015-08-10T13:03:52Z</time>
      </trkpt>
      <trkpt lat="45.82454" lon="2.95378">
        <ele>1128.24</ele>
        <time>2015-08-10T13:03:55Z</time>
      </trkpt>
      <trkpt lat="45.82455" lon="2.9538">
        <ele>1128.73</ele>
        <time>2015-08-10T13:03:58Z</time>
      </trkpt>
      <trkpt lat="45.82462" lon="2.95391">
        <ele>1130.17</ele>
        <time>2015-08-10T13:04:05Z</time>
      </trkpt>
      <trkpt lat="45.82466" lon="2.95395">
        <ele>1131.13</ele>
        <time>2015-08-10T13:04:12Z</time>
      </trkpt>
      <trkpt lat="45.82469" lon="2.95397">
        <ele>1132.09</ele>
        <time>2015-08-10T13:04:21Z</time>
      </trkpt>
      <trkpt lat="45.8247" lon="2.95398">
        <ele>1132.57</ele>
        <time>2015-08-10T13:04:30Z</time>
      </trkpt>
      <trkpt lat="45.82468" lon="2.95396">
        <ele>1132.09</ele>
        <time>2015-08-10T13:04:52Z</time>
      </trkpt>
      <trkpt lat="45.82468" lon="2.95393">
        <ele>1131.61</ele>
        <time>2015-08-10T13:05:22Z</time>
      </trkpt>
      <trkpt lat="45.82466" lon="2.95392">
        <ele>1131.61</ele>
        <time>2015-08-10T13:05:50Z</time>
      </trkpt>
      <trkpt lat="45.82466" lon="2.95394">
        <ele>1131.61</ele>
        <time>2015-08-10T13:06:20Z</time>
      </trkpt>
      <trkpt lat="45.82467" lon="2.95394">
        <ele>1131.13</ele>
        <time>2015-08-10T13:06:52Z</time>
      </trkpt>
      <trkpt lat="45.82468" lon="2.95392">
        <ele>1131.13</ele>
        <time>2015-08-10T13:07:26Z</time>
      </trkpt>
      <trkpt lat="45.82466" lon="2.95393">
        <ele>1131.13</ele>
        <time>2015-08-10T13:07:56Z</time>
      </trkpt>
      <trkpt lat="45.82466" lon="2.95393">
        <ele>1130.65</ele>
        <time>2015-08-10T13:08:21Z</time>
      </trkpt>
      <trkpt lat="45.82466" lon="2.95394">
        <ele>1130.65</ele>
        <time>2015-08-10T13:08:51Z</time>
      </trkpt>
      <trkpt lat="45.82469" lon="2.95395">
        <ele>1130.65</ele>
        <time>2015-08-10T13:09:32Z</time>
      </trkpt>
      <trkpt lat="45.82468" lon="2.95395">
        <ele>1130.65</ele>
        <time>2015-08-10T13:10:07Z</time>
      </trkpt>
      <trkpt lat="45.82467" lon="2.95394">
        <ele>1130.65</ele>
        <time>2015-08-10T13:10:37Z</time>
      </trkpt>
      <trkpt lat="45.82466" lon="2.95394">
        <ele>1130.65</ele>
        <time>2015-08-10T13:10:58Z</time>
      </trkpt>
      <trkpt lat="45.82466" lon="2.95394">
        <ele>1130.17</ele>
        <time>2015-08-10T13:11:28Z</time>
      </trkpt>
      <trkpt lat="45.82467" lon="2.95391">
        <ele>1130.17</ele>
        <time>2015-08-10T13:11:51Z</time>
      </trkpt>
      <trkpt lat="45.82467" lon="2.95393">
        <ele>1130.65</ele>
        <time>2015-08-10T13:12:11Z</time>
      </trkpt>
      <trkpt lat="45.82469" lon="2.95406">
        <ele>1130.65</ele>
        <time>2015-08-10T13:12:22Z</time>
      </trkpt>
      <trkpt lat="45.82469" lon="2.95412">
        <ele>1129.69</ele>
        <time>2015-08-10T13:12:29Z</time>
      </trkpt>
      <trkpt lat="45.8247" lon="2.95422">
        <ele>1128.73</ele>
        <time>2015-08-10T13:12:43Z</time>
      </trkpt>
      <trkpt lat="45.8247" lon="2.95424">
        <ele>1128.24</ele>
        <time>2015-08-10T13:12:48Z</time>
      </trkpt>
      <trkpt lat="45.82471" lon="2.95439">
        <ele>1126.8</ele>
        <time>2015-08-10T13:12:59Z</time>
      </trkpt>
      <trkpt lat="45.82472" lon="2.95441">
        <ele>1126.8</ele>
        <time>2015-08-10T13:13:20Z</time>
      </trkpt>
      <trkpt lat="45.82473" lon="2.95451">
        <ele>1125.84</ele>
        <time>2015-08-10T13:13:31Z</time>
      </trkpt>
      <trkpt lat="45.82475" lon="2.95461">
        <ele>1124.4</ele>
        <time>2015-08-10T13:13:43Z</time>
      </trkpt>
      <trkpt lat="45.82477" lon="2.9548">
        <ele>1121.03</ele>
        <time>2015-08-10T13:13:55Z</time>
      </trkpt>
      <trkpt lat="45.8248" lon="2.95507">
        <ele>1118.15</ele>
        <time>2015-08-10T13:14:09Z</time>
      </trkpt>
      <trkpt lat="45.82482" lon="2.95511">
        <ele>1117.67</ele>
        <time>2015-08-10T13:14:24Z</time>
      </trkpt>
      <trkpt lat="45.82485" lon="2.95525">
        <ele>1114.79</ele>
        <time>2015-08-10T13:14:38Z</time>
      </trkpt>
      <trkpt lat="45.82486" lon="2.95543">
        <ele>1112.86</ele>
        <time>2015-08-10T13:14:49Z</time>
      </trkpt>
      <trkpt lat="45.82488" lon="2.95558">
        <ele>1110.46</ele>
        <time>2015-08-10T13:15:03Z</time>
      </trkpt>
      <trkpt lat="45.82488" lon="2.95559">
        <ele>1109.98</ele>
        <time>2015-08-10T13:15:26Z</time>
      </trkpt>
      <trkpt lat="45.82488" lon="2.95555">
        <ele>1110.46</ele>
        <time>2015-08-10T13:15:57Z</time>
      </trkpt>
      <trkpt lat="45.82489" lon="2.95559">
        <ele>1110.46</ele>
        <time>2015-08-10T13:16:15Z</time>
      </trkpt>
      <trkpt lat="45.82489" lon="2.95573">
        <ele>1108.06</ele>
        <time>2015-08-10T13:16:27Z</time>
      </trkpt>
      <trkpt lat="45.8249" lon="2.95589">
        <ele>1105.65</ele>
        <time>2015-08-10T13:16:40Z</time>
      </trkpt>
      <trkpt lat="45.8249" lon="2.95598">
        <ele>1104.21</ele>
        <time>2015-08-10T13:16:54Z</time>
      </trkpt>
      <trkpt lat="45.82491" lon="2.95599">
        <ele>1103.25</ele>
        <time>2015-08-10T13:16:55Z</time>
      </trkpt>
      <trkpt lat="45.82493" lon="2.95606">
        <ele>1102.77</ele>
        <time>2015-08-10T13:17:08Z</time>
      </trkpt>
      <trkpt lat="45.82495" lon="2.95617">
        <ele>1101.33</ele>
        <time>2015-08-10T13:17:19Z</time>
      </trkpt>
      <trkpt lat="45.82498" lon="2.95636">
        <ele>1098.44</ele>
        <time>2015-08-10T13:17:32Z</time>
      </trkpt>
      <trkpt lat="45.82503" lon="2.95653">
        <ele>1096.04</ele>
        <time>2015-08-10T13:17:46Z</time>
      </trkpt>
      <trkpt lat="45.82506" lon="2.9566">
        <ele>1095.08</ele>
        <time>2015-08-10T13:17:53Z</time>
      </trkpt>
      <trkpt lat="45.82509" lon="2.95668">
        <ele>1092.68</ele>
        <time>2015-08-10T13:18:06Z</time>
      </trkpt>
      <trkpt lat="45.82512" lon="2.95679">
        <ele>1090.27</ele>
        <time>2015-08-10T13:18:21Z</time>
      </trkpt>
      <trkpt lat="45.82519" lon="2.95695">
        <ele>1087.39</ele>
        <time>2015-08-10T13:18:36Z</time>
      </trkpt>
      <trkpt lat="45.82522" lon="2.95702">
        <ele>1085.95</ele>
        <time>2015-08-10T13:18:51Z</time>
      </trkpt>
      <trkpt lat="45.82523" lon="2.95708">
        <ele>1084.5</ele>
        <time>2015-08-10T13:19:18Z</time>
      </trkpt>
      <trkpt lat="45.8252" lon="2.95715">
        <ele>1081.62</ele>
        <time>2015-08-10T13:19:28Z</time>
      </trkpt>
      <trkpt lat="45.82517" lon="2.95726">
        <ele>1078.74</ele>
        <time>2015-08-10T13:19:44Z</time>
      </trkpt>
      <trkpt lat="45.82512" lon="2.95739">
        <ele>1075.37</ele>
        <time>2015-08-10T13:19:57Z</time>
      </trkpt>
      <trkpt lat="45.82515" lon="2.95748">
        <ele>1072.49</ele>
        <time>2015-08-10T13:20:08Z</time>
      </trkpt>
      <trkpt lat="45.82516" lon="2.9576">
        <ele>1069.12</ele>
        <time>2015-08-10T13:20:21Z</time>
      </trkpt>
      <trkpt lat="45.8252" lon="2.9577">
        <ele>1066.24</ele>
        <time>2015-08-10T13:20:40Z</time>
      </trkpt>
      <trkpt lat="45.8252" lon="2.95782">
        <ele>1062.87</ele>
        <time>2015-08-10T13:20:54Z</time>
      </trkpt>
      <trkpt lat="45.82519" lon="2.95786">
        <ele>1061.43</ele>
        <time>2015-08-10T13:20:57Z</time>
      </trkpt>
      <trkpt lat="45.82518" lon="2.95791">
        <ele>1060.47</ele>
        <time>2015-08-10T13:20:59Z</time>
      </trkpt>
      <trkpt lat="45.82516" lon="2.95798">
        <ele>1058.07</ele>
        <time>2015-08-10T13:21:03Z</time>
      </trkpt>
      <trkpt lat="45.82514" lon="2.95803">
        <ele>1057.11</ele>
        <time>2015-08-10T13:21:05Z</time>
      </trkpt>
      <trkpt lat="45.82514" lon="2.95813">
        <ele>1054.22</ele>
        <time>2015-08-10T13:21:15Z</time>
      </trkpt>
      <trkpt lat="45.8251" lon="2.9582">
        <ele>1052.3</ele>
        <time>2015-08-10T13:21:20Z</time>
      </trkpt>
      <trkpt lat="45.82502" lon="2.95828">
        <ele>1048.94</ele>
        <time>2015-08-10T13:21:26Z</time>
      </trkpt>
      <trkpt lat="45.82501" lon="2.95845">
        <ele>1046.05</ele>
        <time>2015-08-10T13:21:34Z</time>
      </trkpt>
      <trkpt lat="45.82497" lon="2.95859">
        <ele>1043.17</ele>
        <time>2015-08-10T13:21:52Z</time>
      </trkpt>
      <trkpt lat="45.82496" lon="2.95863">
        <ele>1042.69</ele>
        <time>2015-08-10T13:22:00Z</time>
      </trkpt>
      <trkpt lat="45.82492" lon="2.95873">
        <ele>1038.36</ele>
        <time>2015-08-10T13:22:07Z</time>
      </trkpt>
      <trkpt lat="45.82491" lon="2.95875">
        <ele>1038.36</ele>
        <time>2015-08-10T13:22:08Z</time>
      </trkpt>
      <trkpt lat="45.82491" lon="2.95894">
        <ele>1036.44</ele>
        <time>2015-08-10T13:22:27Z</time>
      </trkpt>
      <trkpt lat="45.8249" lon="2.95902">
        <ele>1035.96</ele>
        <time>2015-08-10T13:22:43Z</time>
      </trkpt>
      <trkpt lat="45.82488" lon="2.9591">
        <ele>1035</ele>
        <time>2015-08-10T13:23:01Z</time>
      </trkpt>
      <trkpt lat="45.82482" lon="2.95919">
        <ele>1031.63</ele>
        <time>2015-08-10T13:23:08Z</time>
      </trkpt>
      <trkpt lat="45.82481" lon="2.9592">
        <ele>1031.15</ele>
        <time>2015-08-10T13:23:09Z</time>
      </trkpt>
      <trkpt lat="45.8248" lon="2.95931">
        <ele>1027.31</ele>
        <time>2015-08-10T13:23:23Z</time>
      </trkpt>
      <trkpt lat="45.82478" lon="2.95936">
        <ele>1025.86</ele>
        <time>2015-08-10T13:23:38Z</time>
      </trkpt>
      <trkpt lat="45.82474" lon="2.95941">
        <ele>1023.94</ele>
        <time>2015-08-10T13:23:54Z</time>
      </trkpt>
      <trkpt lat="45.82471" lon="2.95949">
        <ele>1021.06</ele>
        <time>2015-08-10T13:24:06Z</time>
      </trkpt>
      <trkpt lat="45.82468" lon="2.95959">
        <ele>1018.17</ele>
        <time>2015-08-10T13:24:26Z</time>
      </trkpt>
      <trkpt lat="45.82464" lon="2.95969">
        <ele>1014.81</ele>
        <time>2015-08-10T13:24:45Z</time>
      </trkpt>
      <trkpt lat="45.82463" lon="2.9597">
        <ele>1014.33</ele>
        <time>2015-08-10T13:24:46Z</time>
      </trkpt>
      <trkpt lat="45.82456" lon="2.95986">
        <ele>1010.96</ele>
        <time>2015-08-10T13:24:58Z</time>
      </trkpt>
      <trkpt lat="45.82452" lon="2.96005">
        <ele>1010.96</ele>
        <time>2015-08-10T13:25:15Z</time>
      </trkpt>
      <trkpt lat="45.82449" lon="2.96009">
        <ele>1010.48</ele>
        <time>2015-08-10T13:25:37Z</time>
      </trkpt>
      <trkpt lat="45.82438" lon="2.96016">
        <ele>1007.6</ele>
        <time>2015-08-10T13:25:55Z</time>
      </trkpt>
      <trkpt lat="45.82435" lon="2.96015">
        <ele>1007.12</ele>
        <time>2015-08-10T13:26:10Z</time>
      </trkpt>
      <trkpt lat="45.8243" lon="2.96024">
        <ele>1003.75</ele>
        <time>2015-08-10T13:26:28Z</time>
      </trkpt>
      <trkpt lat="45.82427" lon="2.96027">
        <ele>1001.83</ele>
        <time>2015-08-10T13:26:39Z</time>
      </trkpt>
      <trkpt lat="45.82416" lon="2.96036">
        <ele>999.43</ele>
        <time>2015-08-10T13:26:59Z</time>
      </trkpt>
      <trkpt lat="45.8241" lon="2.9604">
        <ele>997.99</ele>
        <time>2015-08-10T13:27:14Z</time>
      </trkpt>
      <trkpt lat="45.8239" lon="2.96051">
        <ele>1001.35</ele>
        <time>2015-08-10T13:27:29Z</time>
      </trkpt>
      <trkpt lat="45.8239" lon="2.96053">
        <ele>1000.87</ele>
        <time>2015-08-10T13:27:41Z</time>
      </trkpt>
      <trkpt lat="45.82391" lon="2.96048">
        <ele>1000.39</ele>
        <time>2015-08-10T13:27:58Z</time>
      </trkpt>
      <trkpt lat="45.8239" lon="2.96046">
        <ele>1000.39</ele>
        <time>2015-08-10T13:28:10Z</time>
      </trkpt>
      <trkpt lat="45.82388" lon="2.9605">
        <ele>1000.87</ele>
        <time>2015-08-10T13:28:27Z</time>
      </trkpt>
      <trkpt lat="45.82381" lon="2.96064">
        <ele>998.95</ele>
        <time>2015-08-10T13:28:41Z</time>
      </trkpt>
      <trkpt lat="45.8238" lon="2.96077">
        <ele>997.02</ele>
        <time>2015-08-10T13:28:53Z</time>
      </trkpt>
      <trkpt lat="45.82385" lon="2.96091">
        <ele>994.62</ele>
        <time>2015-08-10T13:29:08Z</time>
      </trkpt>
      <trkpt lat="45.82392" lon="2.96099">
        <ele>993.66</ele>
        <time>2015-08-10T13:29:22Z</time>
      </trkpt>
      <trkpt lat="45.82397" lon="2.9611">
        <ele>992.7</ele>
        <time>2015-08-10T13:29:35Z</time>
      </trkpt>
      <trkpt lat="45.82399" lon="2.9611">
        <ele>992.22</ele>
        <time>2015-08-10T13:29:59Z</time>
      </trkpt>
      <trkpt lat="45.8241" lon="2.96118">
        <ele>991.26</ele>
        <time>2015-08-10T13:30:12Z</time>
      </trkpt>
      <trkpt lat="45.82419" lon="2.96117">
        <ele>989.81</ele>
        <time>2015-08-10T13:30:25Z</time>
      </trkpt>
      <trkpt lat="45.82428" lon="2.96124">
        <ele>987.89</ele>
        <time>2015-08-10T13:30:40Z</time>
      </trkpt>
      <trkpt lat="45.82441" lon="2.96138">
        <ele>986.93</ele>
        <time>2015-08-10T13:30:56Z</time>
      </trkpt>
      <trkpt lat="45.82445" lon="2.96142">
        <ele>986.93</ele>
        <time>2015-08-10T13:30:59Z</time>
      </trkpt>
      <trkpt lat="45.82455" lon="2.96154">
        <ele>986.45</ele>
        <time>2015-08-10T13:31:14Z</time>
      </trkpt>
      <trkpt lat="45.82464" lon="2.96162">
        <ele>985.49</ele>
        <time>2015-08-10T13:31:22Z</time>
      </trkpt>
      <trkpt lat="45.82471" lon="2.96177">
        <ele>983.09</ele>
        <time>2015-08-10T13:31:35Z</time>
      </trkpt>
      <trkpt lat="45.82471" lon="2.9618">
        <ele>982.6</ele>
        <time>2015-08-10T13:31:37Z</time>
      </trkpt>
      <trkpt lat="45.82469" lon="2.96186">
        <ele>982.12</ele>
        <time>2015-08-10T13:31:41Z</time>
      </trkpt>
      <trkpt lat="45.8247" lon="2.96198">
        <ele>980.68</ele>
        <time>2015-08-10T13:31:47Z</time>
      </trkpt>
      <trkpt lat="45.82475" lon="2.9623">
        <ele>978.28</ele>
        <time>2015-08-10T13:32:05Z</time>
      </trkpt>
      <trkpt lat="45.82472" lon="2.96251">
        <ele>974.91</ele>
        <time>2015-08-10T13:32:20Z</time>
      </trkpt>
      <trkpt lat="45.82472" lon="2.96267">
        <ele>974.91</ele>
        <time>2015-08-10T13:32:36Z</time>
      </trkpt>
      <trkpt lat="45.82474" lon="2.96277">
        <ele>977.8</ele>
        <time>2015-08-10T13:32:52Z</time>
      </trkpt>
      <trkpt lat="45.82475" lon="2.96277">
        <ele>973.95</ele>
        <time>2015-08-10T13:32:54Z</time>
      </trkpt>
      <trkpt lat="45.82477" lon="2.96289">
        <ele>973.47</ele>
        <time>2015-08-10T13:33:10Z</time>
      </trkpt>
      <trkpt lat="45.82476" lon="2.96293">
        <ele>972.51</ele>
        <time>2015-08-10T13:33:20Z</time>
      </trkpt>
      <trkpt lat="45.82471" lon="2.96296">
        <ele>972.99</ele>
        <time>2015-08-10T13:33:27Z</time>
      </trkpt>
      <trkpt lat="45.82463" lon="2.963">
        <ele>972.51</ele>
        <time>2015-08-10T13:33:38Z</time>
      </trkpt>
      <trkpt lat="45.8245" lon="2.9631">
        <ele>972.99</ele>
        <time>2015-08-10T13:33:51Z</time>
      </trkpt>
      <trkpt lat="45.82433" lon="2.96312">
        <ele>972.03</ele>
        <time>2015-08-10T13:34:09Z</time>
      </trkpt>
      <trkpt lat="45.82428" lon="2.96312">
        <ele>972.51</ele>
        <time>2015-08-10T13:34:12Z</time>
      </trkpt>
      <trkpt lat="45.82414" lon="2.96312">
        <ele>970.59</ele>
        <time>2015-08-10T13:34:24Z</time>
      </trkpt>
      <trkpt lat="45.82394" lon="2.96309">
        <ele>970.11</ele>
        <time>2015-08-10T13:34:41Z</time>
      </trkpt>
      <trkpt lat="45.82376" lon="2.96311">
        <ele>970.11</ele>
        <time>2015-08-10T13:34:57Z</time>
      </trkpt>
      <trkpt lat="45.8236" lon="2.9631">
        <ele>968.67</ele>
        <time>2015-08-10T13:35:15Z</time>
      </trkpt>
      <trkpt lat="45.82345" lon="2.96314">
        <ele>968.67</ele>
        <time>2015-08-10T13:35:31Z</time>
      </trkpt>
      <trkpt lat="45.82328" lon="2.96317">
        <ele>968.67</ele>
        <time>2015-08-10T13:35:43Z</time>
      </trkpt>
      <trkpt lat="45.82304" lon="2.96315">
        <ele>967.22</ele>
        <time>2015-08-10T13:35:57Z</time>
      </trkpt>
      <trkpt lat="45.82292" lon="2.96312">
        <ele>967.7</ele>
        <time>2015-08-10T13:36:11Z</time>
      </trkpt>
      <trkpt lat="45.82279" lon="2.96303">
        <ele>966.26</ele>
        <time>2015-08-10T13:36:27Z</time>
      </trkpt>
      <trkpt lat="45.82262" lon="2.96294">
        <ele>966.74</ele>
        <time>2015-08-10T13:36:46Z</time>
      </trkpt>
      <trkpt lat="45.82243" lon="2.96286">
        <ele>965.3</ele>
        <time>2015-08-10T13:37:02Z</time>
      </trkpt>
      <trkpt lat="45.82221" lon="2.96283">
        <ele>965.3</ele>
        <time>2015-08-10T13:37:20Z</time>
      </trkpt>
      <trkpt lat="45.82218" lon="2.96283">
        <ele>964.34</ele>
        <time>2015-08-10T13:37:22Z</time>
      </trkpt>
      <trkpt lat="45.82203" lon="2.9628">
        <ele>963.86</ele>
        <time>2015-08-10T13:37:37Z</time>
      </trkpt>
      <trkpt lat="45.82185" lon="2.96277">
        <ele>963.38</ele>
        <time>2015-08-10T13:37:55Z</time>
      </trkpt>
      <trkpt lat="45.82165" lon="2.96272">
        <ele>962.42</ele>
        <time>2015-08-10T13:38:12Z</time>
      </trkpt>
      <trkpt lat="45.82148" lon="2.96268">
        <ele>962.42</ele>
        <time>2015-08-10T13:38:29Z</time>
      </trkpt>
      <trkpt lat="45.82131" lon="2.96266">
        <ele>961.46</ele>
        <time>2015-08-10T13:38:46Z</time>
      </trkpt>
      <trkpt lat="45.8211" lon="2.96258">
        <ele>960.01</ele>
        <time>2015-08-10T13:39:03Z</time>
      </trkpt>
      <trkpt lat="45.82091" lon="2.96254">
        <ele>960.49</ele>
        <time>2015-08-10T13:39:21Z</time>
      </trkpt>
      <trkpt lat="45.82073" lon="2.96252">
        <ele>959.53</ele>
        <time>2015-08-10T13:39:39Z</time>
      </trkpt>
      <trkpt lat="45.82052" lon="2.96244">
        <ele>959.53</ele>
        <time>2015-08-10T13:39:58Z</time>
      </trkpt>
      <trkpt lat="45.82049" lon="2.96242">
        <ele>959.53</ele>
        <time>2015-08-10T13:40:00Z</time>
      </trkpt>
      <trkpt lat="45.82045" lon="2.9624">
        <ele>960.01</ele>
        <time>2015-08-10T13:40:02Z</time>
      </trkpt>
      <trkpt lat="45.82028" lon="2.96232">
        <ele>958.57</ele>
        <time>2015-08-10T13:40:18Z</time>
      </trkpt>
      <trkpt lat="45.82015" lon="2.96225">
        <ele>958.57</ele>
        <time>2015-08-10T13:40:34Z</time>
      </trkpt>
      <trkpt lat="45.82007" lon="2.9622">
        <ele>958.57</ele>
        <time>2015-08-10T13:40:42Z</time>
      </trkpt>
      <trkpt lat="45.81991" lon="2.96211">
        <ele>958.09</ele>
        <time>2015-08-10T13:40:58Z</time>
      </trkpt>
      <trkpt lat="45.8198" lon="2.96201">
        <ele>957.61</ele>
        <time>2015-08-10T13:41:14Z</time>
      </trkpt>
      <trkpt lat="45.81971" lon="2.96195">
        <ele>957.61</ele>
        <time>2015-08-10T13:41:25Z</time>
      </trkpt>
      <trkpt lat="45.81963" lon="2.96188">
        <ele>957.61</ele>
        <time>2015-08-10T13:41:34Z</time>
      </trkpt>
      <trkpt lat="45.81958" lon="2.96186">
        <ele>957.61</ele>
        <time>2015-08-10T13:41:38Z</time>
      </trkpt>
      <trkpt lat="45.81952" lon="2.96181">
        <ele>957.13</ele>
        <time>2015-08-10T13:41:46Z</time>
      </trkpt>
      <trkpt lat="45.81936" lon="2.96168">
        <ele>957.13</ele>
        <time>2015-08-10T13:42:01Z</time>
      </trkpt>
      <trkpt lat="45.81921" lon="2.96155">
        <ele>957.13</ele>
        <time>2015-08-10T13:42:16Z</time>
      </trkpt>
      <trkpt lat="45.81908" lon="2.96143">
        <ele>956.65</ele>
        <time>2015-08-10T13:42:32Z</time>
      </trkpt>
      <trkpt lat="45.81895" lon="2.96133">
        <ele>956.17</ele>
        <time>2015-08-10T13:42:47Z</time>
      </trkpt>
      <trkpt lat="45.81877" lon="2.96119">
        <ele>955.21</ele>
        <time>2015-08-10T13:43:04Z</time>
      </trkpt>
      <trkpt lat="45.81862" lon="2.96106">
        <ele>955.69</ele>
        <time>2015-08-10T13:43:20Z</time>
      </trkpt>
      <trkpt lat="45.81861" lon="2.96105">
        <ele>955.69</ele>
        <time>2015-08-10T13:43:21Z</time>
      </trkpt>
      <trkpt lat="45.81847" lon="2.96091">
        <ele>954.73</ele>
        <time>2015-08-10T13:43:36Z</time>
      </trkpt>
      <trkpt lat="45.81835" lon="2.96082">
        <ele>952.32</ele>
        <time>2015-08-10T13:43:49Z</time>
      </trkpt>
      <trkpt lat="45.8182" lon="2.96073">
        <ele>954.25</ele>
        <time>2015-08-10T13:44:04Z</time>
      </trkpt>
      <trkpt lat="45.81807" lon="2.96059">
        <ele>953.77</ele>
        <time>2015-08-10T13:44:18Z</time>
      </trkpt>
      <trkpt lat="45.81788" lon="2.96047">
        <ele>953.77</ele>
        <time>2015-08-10T13:44:35Z</time>
      </trkpt>
      <trkpt lat="45.81781" lon="2.9604">
        <ele>953.28</ele>
        <time>2015-08-10T13:44:43Z</time>
      </trkpt>
      <trkpt lat="45.81767" lon="2.96029">
        <ele>952.8</ele>
        <time>2015-08-10T13:45:00Z</time>
      </trkpt>
      <trkpt lat="45.81764" lon="2.96024">
        <ele>951.84</ele>
        <time>2015-08-10T13:45:05Z</time>
      </trkpt>
      <trkpt lat="45.81746" lon="2.96011">
        <ele>952.32</ele>
        <time>2015-08-10T13:45:21Z</time>
      </trkpt>
      <trkpt lat="45.81736" lon="2.96002">
        <ele>951.84</ele>
        <time>2015-08-10T13:45:31Z</time>
      </trkpt>
      <trkpt lat="45.8172" lon="2.95992">
        <ele>953.28</ele>
        <time>2015-08-10T13:45:46Z</time>
      </trkpt>
      <trkpt lat="45.81714" lon="2.95989">
        <ele>953.28</ele>
        <time>2015-08-10T13:45:55Z</time>
      </trkpt>
      <trkpt lat="45.81698" lon="2.95981">
        <ele>952.8</ele>
        <time>2015-08-10T13:46:10Z</time>
      </trkpt>
      <trkpt lat="45.81681" lon="2.9597">
        <ele>953.28</ele>
        <time>2015-08-10T13:46:25Z</time>
      </trkpt>
      <trkpt lat="45.81668" lon="2.95962">
        <ele>952.8</ele>
        <time>2015-08-10T13:46:39Z</time>
      </trkpt>
      <trkpt lat="45.81658" lon="2.95957">
        <ele>952.8</ele>
        <time>2015-08-10T13:46:53Z</time>
      </trkpt>
      <trkpt lat="45.81652" lon="2.95954">
        <ele>952.32</ele>
        <time>2015-08-10T13:47:15Z</time>
      </trkpt>
      <trkpt lat="45.81651" lon="2.95953">
        <ele>951.84</ele>
        <time>2015-08-10T13:47:16Z</time>
      </trkpt>
      <trkpt lat="45.81642" lon="2.95947">
        <ele>952.8</ele>
        <time>2015-08-10T13:47:24Z</time>
      </trkpt>
      <trkpt lat="45.81622" lon="2.95936">
        <ele>951.84</ele>
        <time>2015-08-10T13:47:40Z</time>
      </trkpt>
      <trkpt lat="45.81619" lon="2.95933">
        <ele>953.28</ele>
        <time>2015-08-10T13:47:45Z</time>
      </trkpt>
      <trkpt lat="45.81601" lon="2.9592">
        <ele>952.8</ele>
        <time>2015-08-10T13:48:01Z</time>
      </trkpt>
      <trkpt lat="45.8158" lon="2.95908">
        <ele>952.8</ele>
        <time>2015-08-10T13:48:20Z</time>
      </trkpt>
      <trkpt lat="45.81561" lon="2.95895">
        <ele>953.77</ele>
        <time>2015-08-10T13:48:39Z</time>
      </trkpt>
      <trkpt lat="45.81544" lon="2.95888">
        <ele>952.8</ele>
        <time>2015-08-10T13:48:54Z</time>
      </trkpt>
      <trkpt lat="45.81541" lon="2.95885">
        <ele>951.36</ele>
        <time>2015-08-10T13:48:58Z</time>
      </trkpt>
      <trkpt lat="45.81535" lon="2.95882">
        <ele>952.8</ele>
        <time>2015-08-10T13:49:05Z</time>
      </trkpt>
      <trkpt lat="45.81511" lon="2.95871">
        <ele>951.84</ele>
        <time>2015-08-10T13:49:22Z</time>
      </trkpt>
      <trkpt lat="45.8151" lon="2.9587">
        <ele>953.28</ele>
        <time>2015-08-10T13:49:23Z</time>
      </trkpt>
      <trkpt lat="45.81489" lon="2.95859">
        <ele>951.36</ele>
        <time>2015-08-10T13:49:40Z</time>
      </trkpt>
      <trkpt lat="45.81473" lon="2.9585">
        <ele>951.84</ele>
        <time>2015-08-10T13:49:53Z</time>
      </trkpt>
      <trkpt lat="45.81457" lon="2.9584">
        <ele>951.36</ele>
        <time>2015-08-10T13:50:06Z</time>
      </trkpt>
      <trkpt lat="45.8144" lon="2.95822">
        <ele>951.84</ele>
        <time>2015-08-10T13:50:21Z</time>
      </trkpt>
      <trkpt lat="45.81431" lon="2.95809">
        <ele>951.84</ele>
        <time>2015-08-10T13:50:35Z</time>
      </trkpt>
      <trkpt lat="45.81429" lon="2.95776">
        <ele>950.88</ele>
        <time>2015-08-10T13:50:54Z</time>
      </trkpt>
      <trkpt lat="45.81429" lon="2.95772">
        <ele>951.84</ele>
        <time>2015-08-10T13:50:57Z</time>
      </trkpt>
      <trkpt lat="45.81421" lon="2.95733">
        <ele>950.88</ele>
        <time>2015-08-10T13:51:17Z</time>
      </trkpt>
      <trkpt lat="45.81421" lon="2.957">
        <ele>948.96</ele>
        <time>2015-08-10T13:51:33Z</time>
      </trkpt>
      <trkpt lat="45.81421" lon="2.95686">
        <ele>950.4</ele>
        <time>2015-08-10T13:51:41Z</time>
      </trkpt>
      <trkpt lat="45.81421" lon="2.95682">
        <ele>949.92</ele>
        <time>2015-08-10T13:51:43Z</time>
      </trkpt>
      <trkpt lat="45.81421" lon="2.9565">
        <ele>949.44</ele>
        <time>2015-08-10T13:52:01Z</time>
      </trkpt>
      <trkpt lat="45.8142" lon="2.95644">
        <ele>950.88</ele>
        <time>2015-08-10T13:52:04Z</time>
      </trkpt>
      <trkpt lat="45.81418" lon="2.95637">
        <ele>950.4</ele>
        <time>2015-08-10T13:52:09Z</time>
      </trkpt>
      <trkpt lat="45.81418" lon="2.9562">
        <ele>949.44</ele>
        <time>2015-08-10T13:52:18Z</time>
      </trkpt>
      <trkpt lat="45.81418" lon="2.95617">
        <ele>950.88</ele>
        <time>2015-08-10T13:52:20Z</time>
      </trkpt>
      <trkpt lat="45.81415" lon="2.95589">
        <ele>950.88</ele>
        <time>2015-08-10T13:52:35Z</time>
      </trkpt>
      <trkpt lat="45.8141" lon="2.95559">
        <ele>950.4</ele>
        <time>2015-08-10T13:52:52Z</time>
      </trkpt>
      <trkpt lat="45.81412" lon="2.95531">
        <ele>951.36</ele>
        <time>2015-08-10T13:53:07Z</time>
      </trkpt>
      <trkpt lat="45.81422" lon="2.95495">
        <ele>950.88</ele>
        <time>2015-08-10T13:53:26Z</time>
      </trkpt>
      <trkpt lat="45.81429" lon="2.95467">
        <ele>950.88</ele>
        <time>2015-08-10T13:53:43Z</time>
      </trkpt>
      <trkpt lat="45.81431" lon="2.95458">
        <ele>951.36</ele>
        <time>2015-08-10T13:53:48Z</time>
      </trkpt>
      <trkpt lat="45.81436" lon="2.95445">
        <ele>951.36</ele>
        <time>2015-08-10T13:53:56Z</time>
      </trkpt>
      <trkpt lat="45.81441" lon="2.95432">
        <ele>950.4</ele>
        <time>2015-08-10T13:54:03Z</time>
      </trkpt>
      <trkpt lat="45.81449" lon="2.95407">
        <ele>951.84</ele>
        <time>2015-08-10T13:54:19Z</time>
      </trkpt>
      <trkpt lat="45.81455" lon="2.95383">
        <ele>951.84</ele>
        <time>2015-08-10T13:54:34Z</time>
      </trkpt>
      <trkpt lat="45.81457" lon="2.9537">
        <ele>950.4</ele>
        <time>2015-08-10T13:54:43Z</time>
      </trkpt>
      <trkpt lat="45.81456" lon="2.95365">
        <ele>952.8</ele>
        <time>2015-08-10T13:54:46Z</time>
      </trkpt>
      <trkpt lat="45.81451" lon="2.95362">
        <ele>952.32</ele>
        <time>2015-08-10T13:54:51Z</time>
      </trkpt>
      <trkpt lat="45.81439" lon="2.9538">
        <ele>951.36</ele>
        <time>2015-08-10T13:55:07Z</time>
      </trkpt>
      <trkpt lat="45.81427" lon="2.95398">
        <ele>951.36</ele>
        <time>2015-08-10T13:55:21Z</time>
      </trkpt>
      <trkpt lat="45.81414" lon="2.95418">
        <ele>951.84</ele>
        <time>2015-08-10T13:55:36Z</time>
      </trkpt>
      <trkpt lat="45.81413" lon="2.95419">
        <ele>951.36</ele>
        <time>2015-08-10T13:55:37Z</time>
      </trkpt>
      <trkpt lat="45.81411" lon="2.9542">
        <ele>951.84</ele>
        <time>2015-08-10T13:55:39Z</time>
      </trkpt>
      <trkpt lat="45.81396" lon="2.95434">
        <ele>953.28</ele>
        <time>2015-08-10T13:55:53Z</time>
      </trkpt>
      <trkpt lat="45.81394" lon="2.95435">
        <ele>951.84</ele>
        <time>2015-08-10T13:55:55Z</time>
      </trkpt>
      <trkpt lat="45.81382" lon="2.95439">
        <ele>952.32</ele>
        <time>2015-08-10T13:56:06Z</time>
      </trkpt>
      <trkpt lat="45.81379" lon="2.95435">
        <ele>953.77</ele>
        <time>2015-08-10T13:56:10Z</time>
      </trkpt>
      <trkpt lat="45.81377" lon="2.95429">
        <ele>954.25</ele>
        <time>2015-08-10T13:56:25Z</time>
      </trkpt>
      <trkpt lat="45.81376" lon="2.95426">
        <ele>954.25</ele>
        <time>2015-08-10T13:56:44Z</time>
      </trkpt>
      <trkpt lat="45.81378" lon="2.95424">
        <ele>954.25</ele>
        <time>2015-08-10T13:56:58Z</time>
      </trkpt>
      <trkpt lat="45.81378" lon="2.95424">
        <ele>954.25</ele>
        <time>2015-08-10T13:57:26Z</time>
      </trkpt>
      <trkpt lat="45.81379" lon="2.95423">
        <ele>954.73</ele>
        <time>2015-08-10T13:57:55Z</time>
      </trkpt>
      <trkpt lat="45.81375" lon="2.95424">
        <ele>954.25</ele>
        <time>2015-08-10T13:58:27Z</time>
      </trkpt>
    </trkseg>
  </trk>
</gpx>